﻿<?xml version="1.0" encoding="UTF-8" standalone="no" ?>
<gpx xmlns="http://www.topografix.com/GPX/1/1" creator="CompeGPS" version="1.1" xmlns:xsi="http://www.w3.org/2001/XMLSchema-instance" xsi:schemaLocation="http://www.topografix.com/GPX/1/1 http://www.topografix.com/GPX/1/1/gpx.xsd http://www.garmin.com/xmlschemas/GpxExtensions/v3 http://www.garmin.com/xmlschemas/GpxExtensionsv3.xsd http://www.garmin.com/xmlschemas/TrackPointExtension/v1 http://www.garmin.com/xmlschemas/TrackPointExtensionv1.xsd" xmlns:gpxtpx="http://www.garmin.com/xmlschemas/TrackPointExtension/v1">
  <metadata>
    <link href="http://www.compegps.com">
      <text>CompeGPS TEAM, SL</text>
    </link>
    <time>2014-07-18T18:54:06Z</time>
    <bounds maxlat="42.598538" maxlon="0.696557" minlat="42.581946" minlon="0.649338"/>
  </metadata>
  <trk>
    <name>Vallibierna ok</name>
    <trkseg>
      <trkpt lat="42.581946" lon="0.696259">
        <ele>2197.1</ele>
        <time>2014-07-17T07:22:09Z</time>
      </trkpt>
      <trkpt lat="42.582079" lon="0.696283">
        <ele>2198.0</ele>
        <time>2014-07-17T07:22:26Z</time>
      </trkpt>
      <trkpt lat="42.582141" lon="0.696337">
        <ele>2200.2</ele>
        <time>2014-07-17T07:22:47Z</time>
      </trkpt>
      <trkpt lat="42.582113" lon="0.696465">
        <ele>2202.3</ele>
        <time>2014-07-17T07:23:03Z</time>
      </trkpt>
      <trkpt lat="42.582172" lon="0.696557">
        <ele>2203.6</ele>
        <time>2014-07-17T07:23:18Z</time>
      </trkpt>
      <trkpt lat="42.582806" lon="0.696296">
        <ele>2208.0</ele>
        <time>2014-07-17T07:24:27Z</time>
      </trkpt>
      <trkpt lat="42.582896" lon="0.696338">
        <ele>2207.6</ele>
        <time>2014-07-17T07:24:34Z</time>
      </trkpt>
      <trkpt lat="42.582979" lon="0.696369">
        <ele>2207.4</ele>
        <time>2014-07-17T07:24:42Z</time>
      </trkpt>
      <trkpt lat="42.583066" lon="0.696419">
        <ele>2206.8</ele>
        <time>2014-07-17T07:24:51Z</time>
      </trkpt>
      <trkpt lat="42.583159" lon="0.696481">
        <ele>2206.5</ele>
        <time>2014-07-17T07:25:07Z</time>
      </trkpt>
      <trkpt lat="42.583239" lon="0.696411">
        <ele>2206.2</ele>
        <time>2014-07-17T07:25:14Z</time>
      </trkpt>
      <trkpt lat="42.583316" lon="0.696316">
        <ele>2205.6</ele>
        <time>2014-07-17T07:25:25Z</time>
      </trkpt>
      <trkpt lat="42.583421" lon="0.696278">
        <ele>2205.3</ele>
        <time>2014-07-17T07:25:33Z</time>
      </trkpt>
      <trkpt lat="42.583517" lon="0.696215">
        <ele>2204.7</ele>
        <time>2014-07-17T07:25:45Z</time>
      </trkpt>
      <trkpt lat="42.583599" lon="0.696160">
        <ele>2203.7</ele>
        <time>2014-07-17T07:25:51Z</time>
      </trkpt>
      <trkpt lat="42.583684" lon="0.696089">
        <ele>2202.0</ele>
        <time>2014-07-17T07:25:59Z</time>
      </trkpt>
      <trkpt lat="42.583772" lon="0.696016">
        <ele>2200.7</ele>
        <time>2014-07-17T07:26:08Z</time>
      </trkpt>
      <trkpt lat="42.583858" lon="0.695963">
        <ele>2199.3</ele>
        <time>2014-07-17T07:26:16Z</time>
      </trkpt>
      <trkpt lat="42.583941" lon="0.695863">
        <ele>2197.1</ele>
        <time>2014-07-17T07:26:27Z</time>
      </trkpt>
      <trkpt lat="42.584034" lon="0.695802">
        <ele>2195.8</ele>
        <time>2014-07-17T07:26:36Z</time>
      </trkpt>
      <trkpt lat="42.584092" lon="0.695709">
        <ele>2194.1</ele>
        <time>2014-07-17T07:26:45Z</time>
      </trkpt>
      <trkpt lat="42.584130" lon="0.695578">
        <ele>2192.9</ele>
        <time>2014-07-17T07:26:54Z</time>
      </trkpt>
      <trkpt lat="42.584167" lon="0.695449">
        <ele>2192.5</ele>
        <time>2014-07-17T07:27:03Z</time>
      </trkpt>
      <trkpt lat="42.584214" lon="0.695322">
        <ele>2192.1</ele>
        <time>2014-07-17T07:27:12Z</time>
      </trkpt>
      <trkpt lat="42.584254" lon="0.695200">
        <ele>2192.0</ele>
        <time>2014-07-17T07:27:20Z</time>
      </trkpt>
      <trkpt lat="42.584289" lon="0.695080">
        <ele>2192.5</ele>
        <time>2014-07-17T07:27:28Z</time>
      </trkpt>
      <trkpt lat="42.584321" lon="0.694939">
        <ele>2193.6</ele>
        <time>2014-07-17T07:27:39Z</time>
      </trkpt>
      <trkpt lat="42.584355" lon="0.694823">
        <ele>2194.5</ele>
        <time>2014-07-17T07:27:49Z</time>
      </trkpt>
      <trkpt lat="42.584350" lon="0.694676">
        <ele>2194.8</ele>
        <time>2014-07-17T07:27:58Z</time>
      </trkpt>
      <trkpt lat="42.584348" lon="0.694551">
        <ele>2194.6</ele>
        <time>2014-07-17T07:28:06Z</time>
      </trkpt>
      <trkpt lat="42.584381" lon="0.694432">
        <ele>2194.1</ele>
        <time>2014-07-17T07:28:14Z</time>
      </trkpt>
      <trkpt lat="42.584415" lon="0.694315">
        <ele>2194.1</ele>
        <time>2014-07-17T07:28:22Z</time>
      </trkpt>
      <trkpt lat="42.584447" lon="0.694197">
        <ele>2194.1</ele>
        <time>2014-07-17T07:28:32Z</time>
      </trkpt>
      <trkpt lat="42.584449" lon="0.694089">
        <ele>2194.1</ele>
        <time>2014-07-17T07:28:40Z</time>
      </trkpt>
      <trkpt lat="42.584437" lon="0.693968">
        <ele>2194.3</ele>
        <time>2014-07-17T07:28:50Z</time>
      </trkpt>
      <trkpt lat="42.584428" lon="0.693841">
        <ele>2194.3</ele>
        <time>2014-07-17T07:28:59Z</time>
      </trkpt>
      <trkpt lat="42.584425" lon="0.693701">
        <ele>2194.6</ele>
        <time>2014-07-17T07:29:08Z</time>
      </trkpt>
      <trkpt lat="42.584423" lon="0.693569">
        <ele>2194.9</ele>
        <time>2014-07-17T07:29:17Z</time>
      </trkpt>
      <trkpt lat="42.584467" lon="0.693462">
        <ele>2195.6</ele>
        <time>2014-07-17T07:29:32Z</time>
      </trkpt>
      <trkpt lat="42.584476" lon="0.693355">
        <ele>2195.3</ele>
        <time>2014-07-17T07:29:45Z</time>
      </trkpt>
      <trkpt lat="42.584539" lon="0.693241">
        <ele>2196.2</ele>
        <time>2014-07-17T07:30:01Z</time>
      </trkpt>
      <trkpt lat="42.584589" lon="0.693132">
        <ele>2197.9</ele>
        <time>2014-07-17T07:30:16Z</time>
      </trkpt>
      <trkpt lat="42.584627" lon="0.693028">
        <ele>2198.7</ele>
        <time>2014-07-17T07:30:28Z</time>
      </trkpt>
      <trkpt lat="42.584668" lon="0.692915">
        <ele>2199.2</ele>
        <time>2014-07-17T07:30:38Z</time>
      </trkpt>
      <trkpt lat="42.584735" lon="0.692817">
        <ele>2199.6</ele>
        <time>2014-07-17T07:30:53Z</time>
      </trkpt>
      <trkpt lat="42.584835" lon="0.692744">
        <ele>2201.5</ele>
        <time>2014-07-17T07:31:06Z</time>
      </trkpt>
      <trkpt lat="42.584898" lon="0.692630">
        <ele>2203.0</ele>
        <time>2014-07-17T07:31:19Z</time>
      </trkpt>
      <trkpt lat="42.584942" lon="0.692492">
        <ele>2203.4</ele>
        <time>2014-07-17T07:31:31Z</time>
      </trkpt>
      <trkpt lat="42.584967" lon="0.692357">
        <ele>2203.4</ele>
        <time>2014-07-17T07:31:44Z</time>
      </trkpt>
      <trkpt lat="42.585000" lon="0.692250">
        <ele>2203.3</ele>
        <time>2014-07-17T07:32:01Z</time>
      </trkpt>
      <trkpt lat="42.584995" lon="0.692110">
        <ele>2202.8</ele>
        <time>2014-07-17T07:32:17Z</time>
      </trkpt>
      <trkpt lat="42.585009" lon="0.691975">
        <ele>2201.5</ele>
        <time>2014-07-17T07:32:31Z</time>
      </trkpt>
      <trkpt lat="42.585050" lon="0.691866">
        <ele>2201.5</ele>
        <time>2014-07-17T07:32:42Z</time>
      </trkpt>
      <trkpt lat="42.585099" lon="0.691757">
        <ele>2201.9</ele>
        <time>2014-07-17T07:32:53Z</time>
      </trkpt>
      <trkpt lat="42.585136" lon="0.691627">
        <ele>2202.0</ele>
        <time>2014-07-17T07:33:03Z</time>
      </trkpt>
      <trkpt lat="42.585183" lon="0.691530">
        <ele>2202.4</ele>
        <time>2014-07-17T07:33:15Z</time>
      </trkpt>
      <trkpt lat="42.585220" lon="0.691413">
        <ele>2203.2</ele>
        <time>2014-07-17T07:33:26Z</time>
      </trkpt>
      <trkpt lat="42.585270" lon="0.691320">
        <ele>2203.3</ele>
        <time>2014-07-17T07:33:38Z</time>
      </trkpt>
      <trkpt lat="42.585274" lon="0.691193">
        <ele>2203.2</ele>
        <time>2014-07-17T07:33:51Z</time>
      </trkpt>
      <trkpt lat="42.585269" lon="0.691065">
        <ele>2202.6</ele>
        <time>2014-07-17T07:34:01Z</time>
      </trkpt>
      <trkpt lat="42.585267" lon="0.690925">
        <ele>2201.1</ele>
        <time>2014-07-17T07:34:14Z</time>
      </trkpt>
      <trkpt lat="42.585230" lon="0.690807">
        <ele>2200.2</ele>
        <time>2014-07-17T07:34:24Z</time>
      </trkpt>
      <trkpt lat="42.585221" lon="0.690658">
        <ele>2200.2</ele>
        <time>2014-07-17T07:34:34Z</time>
      </trkpt>
      <trkpt lat="42.585245" lon="0.690533">
        <ele>2200.1</ele>
        <time>2014-07-17T07:34:43Z</time>
      </trkpt>
      <trkpt lat="42.585268" lon="0.690411">
        <ele>2200.4</ele>
        <time>2014-07-17T07:34:52Z</time>
      </trkpt>
      <trkpt lat="42.585284" lon="0.690280">
        <ele>2200.8</ele>
        <time>2014-07-17T07:35:02Z</time>
      </trkpt>
      <trkpt lat="42.585283" lon="0.690157">
        <ele>2200.4</ele>
        <time>2014-07-17T07:35:10Z</time>
      </trkpt>
      <trkpt lat="42.585305" lon="0.690037">
        <ele>2200.4</ele>
        <time>2014-07-17T07:35:22Z</time>
      </trkpt>
      <trkpt lat="42.585364" lon="0.689926">
        <ele>2202.5</ele>
        <time>2014-07-17T07:35:35Z</time>
      </trkpt>
      <trkpt lat="42.585380" lon="0.689777">
        <ele>2205.0</ele>
        <time>2014-07-17T07:35:48Z</time>
      </trkpt>
      <trkpt lat="42.585398" lon="0.689651">
        <ele>2205.2</ele>
        <time>2014-07-17T07:35:57Z</time>
      </trkpt>
      <trkpt lat="42.585419" lon="0.689527">
        <ele>2206.0</ele>
        <time>2014-07-17T07:36:11Z</time>
      </trkpt>
      <trkpt lat="42.585481" lon="0.689490">
        <ele>2209.5</ele>
        <time>2014-07-17T07:36:31Z</time>
      </trkpt>
      <trkpt lat="42.585511" lon="0.689345">
        <ele>2213.0</ele>
        <time>2014-07-17T07:36:50Z</time>
      </trkpt>
      <trkpt lat="42.585500" lon="0.689220">
        <ele>2217.1</ele>
        <time>2014-07-17T07:37:08Z</time>
      </trkpt>
      <trkpt lat="42.585513" lon="0.689087">
        <ele>2221.9</ele>
        <time>2014-07-17T07:37:31Z</time>
      </trkpt>
      <trkpt lat="42.585462" lon="0.688949">
        <ele>2224.4</ele>
        <time>2014-07-17T07:37:47Z</time>
      </trkpt>
      <trkpt lat="42.585495" lon="0.688834">
        <ele>2226.1</ele>
        <time>2014-07-17T07:38:03Z</time>
      </trkpt>
      <trkpt lat="42.585517" lon="0.688713">
        <ele>2229.5</ele>
        <time>2014-07-17T07:38:20Z</time>
      </trkpt>
      <trkpt lat="42.585530" lon="0.688586">
        <ele>2231.6</ele>
        <time>2014-07-17T07:38:35Z</time>
      </trkpt>
      <trkpt lat="42.585606" lon="0.688484">
        <ele>2234.2</ele>
        <time>2014-07-17T07:38:50Z</time>
      </trkpt>
      <trkpt lat="42.585636" lon="0.688354">
        <ele>2235.3</ele>
        <time>2014-07-17T07:39:01Z</time>
      </trkpt>
      <trkpt lat="42.585657" lon="0.688222">
        <ele>2236.7</ele>
        <time>2014-07-17T07:39:13Z</time>
      </trkpt>
      <trkpt lat="42.585681" lon="0.688114">
        <ele>2237.0</ele>
        <time>2014-07-17T07:39:23Z</time>
      </trkpt>
      <trkpt lat="42.585704" lon="0.687992">
        <ele>2237.3</ele>
        <time>2014-07-17T07:39:34Z</time>
      </trkpt>
      <trkpt lat="42.585758" lon="0.687903">
        <ele>2237.8</ele>
        <time>2014-07-17T07:39:44Z</time>
      </trkpt>
      <trkpt lat="42.585734" lon="0.687763">
        <ele>2237.6</ele>
        <time>2014-07-17T07:39:58Z</time>
      </trkpt>
      <trkpt lat="42.585668" lon="0.687668">
        <ele>2236.9</ele>
        <time>2014-07-17T07:40:07Z</time>
      </trkpt>
      <trkpt lat="42.585675" lon="0.687542">
        <ele>2236.1</ele>
        <time>2014-07-17T07:40:17Z</time>
      </trkpt>
      <trkpt lat="42.585658" lon="0.687394">
        <ele>2234.5</ele>
        <time>2014-07-17T07:40:28Z</time>
      </trkpt>
      <trkpt lat="42.585620" lon="0.687279">
        <ele>2232.8</ele>
        <time>2014-07-17T07:40:41Z</time>
      </trkpt>
      <trkpt lat="42.585591" lon="0.687163">
        <ele>2229.5</ele>
        <time>2014-07-17T07:40:54Z</time>
      </trkpt>
      <trkpt lat="42.585603" lon="0.687019">
        <ele>2226.8</ele>
        <time>2014-07-17T07:41:07Z</time>
      </trkpt>
      <trkpt lat="42.585606" lon="0.686889">
        <ele>2225.8</ele>
        <time>2014-07-17T07:41:18Z</time>
      </trkpt>
      <trkpt lat="42.585600" lon="0.686745">
        <ele>2225.3</ele>
        <time>2014-07-17T07:41:29Z</time>
      </trkpt>
      <trkpt lat="42.585594" lon="0.686603">
        <ele>2224.2</ele>
        <time>2014-07-17T07:41:39Z</time>
      </trkpt>
      <trkpt lat="42.585603" lon="0.686480">
        <ele>2223.0</ele>
        <time>2014-07-17T07:41:49Z</time>
      </trkpt>
      <trkpt lat="42.585634" lon="0.686379">
        <ele>2221.0</ele>
        <time>2014-07-17T07:42:00Z</time>
      </trkpt>
      <trkpt lat="42.585719" lon="0.686320">
        <ele>2218.5</ele>
        <time>2014-07-17T07:42:14Z</time>
      </trkpt>
      <trkpt lat="42.585755" lon="0.686174">
        <ele>2216.1</ele>
        <time>2014-07-17T07:42:28Z</time>
      </trkpt>
      <trkpt lat="42.585717" lon="0.686040">
        <ele>2213.9</ele>
        <time>2014-07-17T07:42:39Z</time>
      </trkpt>
      <trkpt lat="42.585656" lon="0.685963">
        <ele>2211.1</ele>
        <time>2014-07-17T07:42:54Z</time>
      </trkpt>
      <trkpt lat="42.585657" lon="0.685822">
        <ele>2208.8</ele>
        <time>2014-07-17T07:43:05Z</time>
      </trkpt>
      <trkpt lat="42.585625" lon="0.685696">
        <ele>2206.5</ele>
        <time>2014-07-17T07:43:15Z</time>
      </trkpt>
      <trkpt lat="42.585614" lon="0.685541">
        <ele>2204.7</ele>
        <time>2014-07-17T07:43:26Z</time>
      </trkpt>
      <trkpt lat="42.585594" lon="0.685397">
        <ele>2202.3</ele>
        <time>2014-07-17T07:43:36Z</time>
      </trkpt>
      <trkpt lat="42.585608" lon="0.685270">
        <ele>2200.0</ele>
        <time>2014-07-17T07:43:46Z</time>
      </trkpt>
      <trkpt lat="42.585580" lon="0.685137">
        <ele>2197.9</ele>
        <time>2014-07-17T07:43:58Z</time>
      </trkpt>
      <trkpt lat="42.585587" lon="0.685014">
        <ele>2196.1</ele>
        <time>2014-07-17T07:44:09Z</time>
      </trkpt>
      <trkpt lat="42.585633" lon="0.684904">
        <ele>2195.1</ele>
        <time>2014-07-17T07:44:23Z</time>
      </trkpt>
      <trkpt lat="42.585685" lon="0.684778">
        <ele>2195.9</ele>
        <time>2014-07-17T07:44:34Z</time>
      </trkpt>
      <trkpt lat="42.585717" lon="0.684633">
        <ele>2195.9</ele>
        <time>2014-07-17T07:44:44Z</time>
      </trkpt>
      <trkpt lat="42.585734" lon="0.684523">
        <ele>2196.1</ele>
        <time>2014-07-17T07:44:59Z</time>
      </trkpt>
      <trkpt lat="42.585770" lon="0.684480">
        <ele>2195.4</ele>
        <time>2014-07-17T07:45:41Z</time>
      </trkpt>
      <trkpt lat="42.585746" lon="0.684467">
        <ele>2195.3</ele>
        <time>2014-07-17T07:46:33Z</time>
      </trkpt>
      <trkpt lat="42.585738" lon="0.684459">
        <ele>2195.5</ele>
        <time>2014-07-17T07:46:55Z</time>
      </trkpt>
      <trkpt lat="42.585781" lon="0.684339">
        <ele>2196.6</ele>
        <time>2014-07-17T07:47:08Z</time>
      </trkpt>
      <trkpt lat="42.585803" lon="0.684163">
        <ele>2196.9</ele>
        <time>2014-07-17T07:47:19Z</time>
      </trkpt>
      <trkpt lat="42.585828" lon="0.684005">
        <ele>2196.8</ele>
        <time>2014-07-17T07:47:29Z</time>
      </trkpt>
      <trkpt lat="42.585861" lon="0.683877">
        <ele>2196.4</ele>
        <time>2014-07-17T07:47:38Z</time>
      </trkpt>
      <trkpt lat="42.585925" lon="0.683784">
        <ele>2196.3</ele>
        <time>2014-07-17T07:47:47Z</time>
      </trkpt>
      <trkpt lat="42.585977" lon="0.683699">
        <ele>2197.0</ele>
        <time>2014-07-17T07:47:57Z</time>
      </trkpt>
      <trkpt lat="42.586037" lon="0.683578">
        <ele>2197.2</ele>
        <time>2014-07-17T07:48:07Z</time>
      </trkpt>
      <trkpt lat="42.586073" lon="0.683460">
        <ele>2197.1</ele>
        <time>2014-07-17T07:48:16Z</time>
      </trkpt>
      <trkpt lat="42.586113" lon="0.683352">
        <ele>2196.9</ele>
        <time>2014-07-17T07:48:25Z</time>
      </trkpt>
      <trkpt lat="42.586186" lon="0.683226">
        <ele>2196.2</ele>
        <time>2014-07-17T07:48:36Z</time>
      </trkpt>
      <trkpt lat="42.586228" lon="0.683102">
        <ele>2195.8</ele>
        <time>2014-07-17T07:48:47Z</time>
      </trkpt>
      <trkpt lat="42.586267" lon="0.682963">
        <ele>2195.9</ele>
        <time>2014-07-17T07:48:58Z</time>
      </trkpt>
      <trkpt lat="42.586329" lon="0.682833">
        <ele>2196.0</ele>
        <time>2014-07-17T07:49:09Z</time>
      </trkpt>
      <trkpt lat="42.586395" lon="0.682724">
        <ele>2195.6</ele>
        <time>2014-07-17T07:49:23Z</time>
      </trkpt>
      <trkpt lat="42.586439" lon="0.682580">
        <ele>2196.1</ele>
        <time>2014-07-17T07:49:32Z</time>
      </trkpt>
      <trkpt lat="42.586485" lon="0.682477">
        <ele>2196.7</ele>
        <time>2014-07-17T07:49:40Z</time>
      </trkpt>
      <trkpt lat="42.586527" lon="0.682358">
        <ele>2197.2</ele>
        <time>2014-07-17T07:49:48Z</time>
      </trkpt>
      <trkpt lat="42.586578" lon="0.682253">
        <ele>2197.4</ele>
        <time>2014-07-17T07:49:56Z</time>
      </trkpt>
      <trkpt lat="42.586627" lon="0.682152">
        <ele>2197.0</ele>
        <time>2014-07-17T07:50:04Z</time>
      </trkpt>
      <trkpt lat="42.586684" lon="0.682049">
        <ele>2196.9</ele>
        <time>2014-07-17T07:50:12Z</time>
      </trkpt>
      <trkpt lat="42.586729" lon="0.681918">
        <ele>2196.9</ele>
        <time>2014-07-17T07:50:20Z</time>
      </trkpt>
      <trkpt lat="42.586756" lon="0.681829">
        <ele>2196.3</ele>
        <time>2014-07-17T07:50:29Z</time>
      </trkpt>
      <trkpt lat="42.586822" lon="0.681699">
        <ele>2196.8</ele>
        <time>2014-07-17T07:50:43Z</time>
      </trkpt>
      <trkpt lat="42.586952" lon="0.680944">
        <ele>2210.7</ele>
        <time>2014-07-17T07:52:22Z</time>
      </trkpt>
      <trkpt lat="42.586975" lon="0.680662">
        <ele>2212.7</ele>
        <time>2014-07-17T07:52:48Z</time>
      </trkpt>
      <trkpt lat="42.586922" lon="0.680513">
        <ele>2214.6</ele>
        <time>2014-07-17T07:53:03Z</time>
      </trkpt>
      <trkpt lat="42.586902" lon="0.680378">
        <ele>2215.2</ele>
        <time>2014-07-17T07:53:15Z</time>
      </trkpt>
      <trkpt lat="42.586867" lon="0.680234">
        <ele>2216.7</ele>
        <time>2014-07-17T07:53:27Z</time>
      </trkpt>
      <trkpt lat="42.586801" lon="0.680101">
        <ele>2217.7</ele>
        <time>2014-07-17T07:53:42Z</time>
      </trkpt>
      <trkpt lat="42.586712" lon="0.680018">
        <ele>2219.3</ele>
        <time>2014-07-17T07:53:55Z</time>
      </trkpt>
      <trkpt lat="42.586635" lon="0.679886">
        <ele>2220.6</ele>
        <time>2014-07-17T07:54:10Z</time>
      </trkpt>
      <trkpt lat="42.586681" lon="0.679778">
        <ele>2223.4</ele>
        <time>2014-07-17T07:54:25Z</time>
      </trkpt>
      <trkpt lat="42.586771" lon="0.679711">
        <ele>2226.6</ele>
        <time>2014-07-17T07:54:42Z</time>
      </trkpt>
      <trkpt lat="42.586859" lon="0.679671">
        <ele>2229.8</ele>
        <time>2014-07-17T07:54:57Z</time>
      </trkpt>
      <trkpt lat="42.586961" lon="0.679639">
        <ele>2233.2</ele>
        <time>2014-07-17T07:55:14Z</time>
      </trkpt>
      <trkpt lat="42.587037" lon="0.679576">
        <ele>2236.6</ele>
        <time>2014-07-17T07:55:34Z</time>
      </trkpt>
      <trkpt lat="42.587134" lon="0.679550">
        <ele>2240.3</ele>
        <time>2014-07-17T07:55:56Z</time>
      </trkpt>
      <trkpt lat="42.587196" lon="0.679491">
        <ele>2243.6</ele>
        <time>2014-07-17T07:56:13Z</time>
      </trkpt>
      <trkpt lat="42.587196" lon="0.679341">
        <ele>2246.5</ele>
        <time>2014-07-17T07:56:30Z</time>
      </trkpt>
      <trkpt lat="42.587203" lon="0.679216">
        <ele>2247.9</ele>
        <time>2014-07-17T07:56:45Z</time>
      </trkpt>
      <trkpt lat="42.587209" lon="0.679087">
        <ele>2250.1</ele>
        <time>2014-07-17T07:57:02Z</time>
      </trkpt>
      <trkpt lat="42.587223" lon="0.678932">
        <ele>2253.4</ele>
        <time>2014-07-17T07:57:21Z</time>
      </trkpt>
      <trkpt lat="42.587255" lon="0.678819">
        <ele>2256.1</ele>
        <time>2014-07-17T07:57:40Z</time>
      </trkpt>
      <trkpt lat="42.587290" lon="0.678694">
        <ele>2259.7</ele>
        <time>2014-07-17T07:57:59Z</time>
      </trkpt>
      <trkpt lat="42.587343" lon="0.678594">
        <ele>2263.1</ele>
        <time>2014-07-17T07:58:21Z</time>
      </trkpt>
      <trkpt lat="42.587371" lon="0.678488">
        <ele>2266.7</ele>
        <time>2014-07-17T07:58:42Z</time>
      </trkpt>
      <trkpt lat="42.587345" lon="0.678368">
        <ele>2269.6</ele>
        <time>2014-07-17T07:59:01Z</time>
      </trkpt>
      <trkpt lat="42.587316" lon="0.678237">
        <ele>2271.9</ele>
        <time>2014-07-17T07:59:17Z</time>
      </trkpt>
      <trkpt lat="42.587285" lon="0.678098">
        <ele>2274.1</ele>
        <time>2014-07-17T07:59:33Z</time>
      </trkpt>
      <trkpt lat="42.587279" lon="0.677968">
        <ele>2275.5</ele>
        <time>2014-07-17T07:59:46Z</time>
      </trkpt>
      <trkpt lat="42.587285" lon="0.677822">
        <ele>2277.8</ele>
        <time>2014-07-17T08:00:02Z</time>
      </trkpt>
      <trkpt lat="42.587247" lon="0.677676">
        <ele>2281.0</ele>
        <time>2014-07-17T08:00:22Z</time>
      </trkpt>
      <trkpt lat="42.587247" lon="0.677555">
        <ele>2284.0</ele>
        <time>2014-07-17T08:00:40Z</time>
      </trkpt>
      <trkpt lat="42.587228" lon="0.677421">
        <ele>2286.8</ele>
        <time>2014-07-17T08:00:58Z</time>
      </trkpt>
      <trkpt lat="42.587221" lon="0.677275">
        <ele>2289.8</ele>
        <time>2014-07-17T08:01:15Z</time>
      </trkpt>
      <trkpt lat="42.587240" lon="0.677139">
        <ele>2292.7</ele>
        <time>2014-07-17T08:01:33Z</time>
      </trkpt>
      <trkpt lat="42.587254" lon="0.677008">
        <ele>2295.3</ele>
        <time>2014-07-17T08:01:48Z</time>
      </trkpt>
      <trkpt lat="42.587264" lon="0.676874">
        <ele>2297.9</ele>
        <time>2014-07-17T08:02:05Z</time>
      </trkpt>
      <trkpt lat="42.587302" lon="0.676738">
        <ele>2300.9</ele>
        <time>2014-07-17T08:02:23Z</time>
      </trkpt>
      <trkpt lat="42.587324" lon="0.676616">
        <ele>2303.6</ele>
        <time>2014-07-17T08:02:41Z</time>
      </trkpt>
      <trkpt lat="42.587345" lon="0.676491">
        <ele>2305.8</ele>
        <time>2014-07-17T08:02:56Z</time>
      </trkpt>
      <trkpt lat="42.587395" lon="0.676384">
        <ele>2308.5</ele>
        <time>2014-07-17T08:03:14Z</time>
      </trkpt>
      <trkpt lat="42.587425" lon="0.676263">
        <ele>2311.2</ele>
        <time>2014-07-17T08:03:27Z</time>
      </trkpt>
      <trkpt lat="42.587457" lon="0.676172">
        <ele>2314.1</ele>
        <time>2014-07-17T08:03:45Z</time>
      </trkpt>
      <trkpt lat="42.587482" lon="0.676061">
        <ele>2317.0</ele>
        <time>2014-07-17T08:04:03Z</time>
      </trkpt>
      <trkpt lat="42.587509" lon="0.675956">
        <ele>2320.6</ele>
        <time>2014-07-17T08:04:24Z</time>
      </trkpt>
      <trkpt lat="42.587497" lon="0.675797">
        <ele>2323.3</ele>
        <time>2014-07-17T08:04:41Z</time>
      </trkpt>
      <trkpt lat="42.587526" lon="0.675672">
        <ele>2326.0</ele>
        <time>2014-07-17T08:04:57Z</time>
      </trkpt>
      <trkpt lat="42.587534" lon="0.675567">
        <ele>2327.6</ele>
        <time>2014-07-17T08:05:09Z</time>
      </trkpt>
      <trkpt lat="42.587535" lon="0.675441">
        <ele>2328.1</ele>
        <time>2014-07-17T08:05:21Z</time>
      </trkpt>
      <trkpt lat="42.587551" lon="0.675313">
        <ele>2330.8</ele>
        <time>2014-07-17T08:05:37Z</time>
      </trkpt>
      <trkpt lat="42.587558" lon="0.675173">
        <ele>2333.4</ele>
        <time>2014-07-17T08:05:52Z</time>
      </trkpt>
      <trkpt lat="42.587578" lon="0.675030">
        <ele>2335.8</ele>
        <time>2014-07-17T08:06:06Z</time>
      </trkpt>
      <trkpt lat="42.587554" lon="0.674905">
        <ele>2337.5</ele>
        <time>2014-07-17T08:06:18Z</time>
      </trkpt>
      <trkpt lat="42.587544" lon="0.674793">
        <ele>2338.7</ele>
        <time>2014-07-17T08:06:31Z</time>
      </trkpt>
      <trkpt lat="42.587538" lon="0.674658">
        <ele>2340.6</ele>
        <time>2014-07-17T08:06:46Z</time>
      </trkpt>
      <trkpt lat="42.587544" lon="0.674541">
        <ele>2342.9</ele>
        <time>2014-07-17T08:07:01Z</time>
      </trkpt>
      <trkpt lat="42.587532" lon="0.674407">
        <ele>2344.6</ele>
        <time>2014-07-17T08:07:13Z</time>
      </trkpt>
      <trkpt lat="42.587512" lon="0.674264">
        <ele>2345.9</ele>
        <time>2014-07-17T08:07:26Z</time>
      </trkpt>
      <trkpt lat="42.587510" lon="0.674112">
        <ele>2347.4</ele>
        <time>2014-07-17T08:07:38Z</time>
      </trkpt>
      <trkpt lat="42.587497" lon="0.673977">
        <ele>2348.0</ele>
        <time>2014-07-17T08:07:49Z</time>
      </trkpt>
      <trkpt lat="42.587496" lon="0.673863">
        <ele>2349.7</ele>
        <time>2014-07-17T08:08:02Z</time>
      </trkpt>
      <trkpt lat="42.587520" lon="0.673732">
        <ele>2350.8</ele>
        <time>2014-07-17T08:08:16Z</time>
      </trkpt>
      <trkpt lat="42.587529" lon="0.673589">
        <ele>2352.0</ele>
        <time>2014-07-17T08:08:30Z</time>
      </trkpt>
      <trkpt lat="42.587521" lon="0.673461">
        <ele>2352.7</ele>
        <time>2014-07-17T08:08:43Z</time>
      </trkpt>
      <trkpt lat="42.587523" lon="0.673327">
        <ele>2354.0</ele>
        <time>2014-07-17T08:08:58Z</time>
      </trkpt>
      <trkpt lat="42.587499" lon="0.673191">
        <ele>2354.7</ele>
        <time>2014-07-17T08:09:11Z</time>
      </trkpt>
      <trkpt lat="42.587466" lon="0.673079">
        <ele>2355.9</ele>
        <time>2014-07-17T08:09:24Z</time>
      </trkpt>
      <trkpt lat="42.587427" lon="0.672947">
        <ele>2358.2</ele>
        <time>2014-07-17T08:09:39Z</time>
      </trkpt>
      <trkpt lat="42.587394" lon="0.672816">
        <ele>2359.8</ele>
        <time>2014-07-17T08:09:52Z</time>
      </trkpt>
      <trkpt lat="42.587400" lon="0.672755">
        <ele>2361.1</ele>
        <time>2014-07-17T08:10:40Z</time>
      </trkpt>
      <trkpt lat="42.587402" lon="0.672599">
        <ele>2362.8</ele>
        <time>2014-07-17T08:10:53Z</time>
      </trkpt>
      <trkpt lat="42.587401" lon="0.672445">
        <ele>2365.1</ele>
        <time>2014-07-17T08:11:07Z</time>
      </trkpt>
      <trkpt lat="42.587402" lon="0.672297">
        <ele>2367.1</ele>
        <time>2014-07-17T08:11:21Z</time>
      </trkpt>
      <trkpt lat="42.587407" lon="0.672155">
        <ele>2369.1</ele>
        <time>2014-07-17T08:11:37Z</time>
      </trkpt>
      <trkpt lat="42.587433" lon="0.672025">
        <ele>2370.3</ele>
        <time>2014-07-17T08:11:49Z</time>
      </trkpt>
      <trkpt lat="42.587404" lon="0.671892">
        <ele>2371.3</ele>
        <time>2014-07-17T08:12:02Z</time>
      </trkpt>
      <trkpt lat="42.587380" lon="0.671769">
        <ele>2372.3</ele>
        <time>2014-07-17T08:12:17Z</time>
      </trkpt>
      <trkpt lat="42.587370" lon="0.671601">
        <ele>2373.7</ele>
        <time>2014-07-17T08:12:30Z</time>
      </trkpt>
      <trkpt lat="42.587361" lon="0.671504">
        <ele>2376.3</ele>
        <time>2014-07-17T08:12:45Z</time>
      </trkpt>
      <trkpt lat="42.587381" lon="0.671334">
        <ele>2378.1</ele>
        <time>2014-07-17T08:13:01Z</time>
      </trkpt>
      <trkpt lat="42.587384" lon="0.671201">
        <ele>2379.9</ele>
        <time>2014-07-17T08:13:16Z</time>
      </trkpt>
      <trkpt lat="42.587395" lon="0.671053">
        <ele>2382.0</ele>
        <time>2014-07-17T08:13:31Z</time>
      </trkpt>
      <trkpt lat="42.587390" lon="0.670907">
        <ele>2383.9</ele>
        <time>2014-07-17T08:13:45Z</time>
      </trkpt>
      <trkpt lat="42.587421" lon="0.670781">
        <ele>2386.6</ele>
        <time>2014-07-17T08:14:00Z</time>
      </trkpt>
      <trkpt lat="42.587441" lon="0.670645">
        <ele>2388.7</ele>
        <time>2014-07-17T08:14:13Z</time>
      </trkpt>
      <trkpt lat="42.587457" lon="0.670499">
        <ele>2390.4</ele>
        <time>2014-07-17T08:14:25Z</time>
      </trkpt>
      <trkpt lat="42.587500" lon="0.670396">
        <ele>2391.5</ele>
        <time>2014-07-17T08:14:37Z</time>
      </trkpt>
      <trkpt lat="42.587554" lon="0.670285">
        <ele>2393.2</ele>
        <time>2014-07-17T08:14:52Z</time>
      </trkpt>
      <trkpt lat="42.587617" lon="0.670200">
        <ele>2395.5</ele>
        <time>2014-07-17T08:15:09Z</time>
      </trkpt>
      <trkpt lat="42.587636" lon="0.670067">
        <ele>2397.0</ele>
        <time>2014-07-17T08:15:23Z</time>
      </trkpt>
      <trkpt lat="42.587644" lon="0.669928">
        <ele>2399.2</ele>
        <time>2014-07-17T08:15:40Z</time>
      </trkpt>
      <trkpt lat="42.587690" lon="0.669842">
        <ele>2401.1</ele>
        <time>2014-07-17T08:15:54Z</time>
      </trkpt>
      <trkpt lat="42.587755" lon="0.669738">
        <ele>2402.1</ele>
        <time>2014-07-17T08:16:08Z</time>
      </trkpt>
      <trkpt lat="42.587782" lon="0.669608">
        <ele>2404.3</ele>
        <time>2014-07-17T08:16:24Z</time>
      </trkpt>
      <trkpt lat="42.587852" lon="0.669527">
        <ele>2406.9</ele>
        <time>2014-07-17T08:16:42Z</time>
      </trkpt>
      <trkpt lat="42.587867" lon="0.669414">
        <ele>2409.3</ele>
        <time>2014-07-17T08:16:57Z</time>
      </trkpt>
      <trkpt lat="42.587893" lon="0.669263">
        <ele>2412.7</ele>
        <time>2014-07-17T08:17:17Z</time>
      </trkpt>
      <trkpt lat="42.587897" lon="0.669122">
        <ele>2414.8</ele>
        <time>2014-07-17T08:17:33Z</time>
      </trkpt>
      <trkpt lat="42.587900" lon="0.668986">
        <ele>2416.6</ele>
        <time>2014-07-17T08:17:47Z</time>
      </trkpt>
      <trkpt lat="42.587915" lon="0.668846">
        <ele>2419.1</ele>
        <time>2014-07-17T08:18:04Z</time>
      </trkpt>
      <trkpt lat="42.587909" lon="0.668713">
        <ele>2421.6</ele>
        <time>2014-07-17T08:18:21Z</time>
      </trkpt>
      <trkpt lat="42.587939" lon="0.668610">
        <ele>2424.2</ele>
        <time>2014-07-17T08:18:36Z</time>
      </trkpt>
      <trkpt lat="42.587980" lon="0.668502">
        <ele>2427.1</ele>
        <time>2014-07-17T08:18:51Z</time>
      </trkpt>
      <trkpt lat="42.588009" lon="0.668370">
        <ele>2430.2</ele>
        <time>2014-07-17T08:19:14Z</time>
      </trkpt>
      <trkpt lat="42.588050" lon="0.668265">
        <ele>2433.9</ele>
        <time>2014-07-17T08:19:36Z</time>
      </trkpt>
      <trkpt lat="42.588085" lon="0.668136">
        <ele>2436.8</ele>
        <time>2014-07-17T08:19:59Z</time>
      </trkpt>
      <trkpt lat="42.588092" lon="0.667984">
        <ele>2438.3</ele>
        <time>2014-07-17T08:20:12Z</time>
      </trkpt>
      <trkpt lat="42.588145" lon="0.667868">
        <ele>2440.0</ele>
        <time>2014-07-17T08:20:25Z</time>
      </trkpt>
      <trkpt lat="42.588156" lon="0.667737">
        <ele>2442.1</ele>
        <time>2014-07-17T08:20:40Z</time>
      </trkpt>
      <trkpt lat="42.588214" lon="0.667627">
        <ele>2444.1</ele>
        <time>2014-07-17T08:20:55Z</time>
      </trkpt>
      <trkpt lat="42.588225" lon="0.667491">
        <ele>2446.4</ele>
        <time>2014-07-17T08:21:10Z</time>
      </trkpt>
      <trkpt lat="42.588242" lon="0.667386">
        <ele>2449.4</ele>
        <time>2014-07-17T08:21:27Z</time>
      </trkpt>
      <trkpt lat="42.588216" lon="0.667230">
        <ele>2450.5</ele>
        <time>2014-07-17T08:21:39Z</time>
      </trkpt>
      <trkpt lat="42.588214" lon="0.667096">
        <ele>2451.9</ele>
        <time>2014-07-17T08:21:52Z</time>
      </trkpt>
      <trkpt lat="42.588233" lon="0.666983">
        <ele>2453.2</ele>
        <time>2014-07-17T08:22:04Z</time>
      </trkpt>
      <trkpt lat="42.588264" lon="0.666850">
        <ele>2454.7</ele>
        <time>2014-07-17T08:22:19Z</time>
      </trkpt>
      <trkpt lat="42.588272" lon="0.666724">
        <ele>2456.3</ele>
        <time>2014-07-17T08:22:32Z</time>
      </trkpt>
      <trkpt lat="42.588311" lon="0.666603">
        <ele>2457.6</ele>
        <time>2014-07-17T08:22:45Z</time>
      </trkpt>
      <trkpt lat="42.588363" lon="0.666495">
        <ele>2458.9</ele>
        <time>2014-07-17T08:23:00Z</time>
      </trkpt>
      <trkpt lat="42.588402" lon="0.666372">
        <ele>2460.3</ele>
        <time>2014-07-17T08:23:14Z</time>
      </trkpt>
      <trkpt lat="42.588436" lon="0.666244">
        <ele>2461.2</ele>
        <time>2014-07-17T08:23:29Z</time>
      </trkpt>
      <trkpt lat="42.588473" lon="0.666135">
        <ele>2461.8</ele>
        <time>2014-07-17T08:23:39Z</time>
      </trkpt>
      <trkpt lat="42.588471" lon="0.666016">
        <ele>2461.6</ele>
        <time>2014-07-17T08:23:48Z</time>
      </trkpt>
      <trkpt lat="42.588472" lon="0.665881">
        <ele>2462.0</ele>
        <time>2014-07-17T08:23:57Z</time>
      </trkpt>
      <trkpt lat="42.588496" lon="0.665754">
        <ele>2462.9</ele>
        <time>2014-07-17T08:24:06Z</time>
      </trkpt>
      <trkpt lat="42.588524" lon="0.665632">
        <ele>2464.5</ele>
        <time>2014-07-17T08:24:19Z</time>
      </trkpt>
      <trkpt lat="42.588518" lon="0.665495">
        <ele>2465.9</ele>
        <time>2014-07-17T08:24:31Z</time>
      </trkpt>
      <trkpt lat="42.588543" lon="0.665351">
        <ele>2467.5</ele>
        <time>2014-07-17T08:24:46Z</time>
      </trkpt>
      <trkpt lat="42.588526" lon="0.665219">
        <ele>2468.6</ele>
        <time>2014-07-17T08:25:00Z</time>
      </trkpt>
      <trkpt lat="42.588550" lon="0.665081">
        <ele>2469.6</ele>
        <time>2014-07-17T08:25:12Z</time>
      </trkpt>
      <trkpt lat="42.588542" lon="0.664952">
        <ele>2470.2</ele>
        <time>2014-07-17T08:25:22Z</time>
      </trkpt>
      <trkpt lat="42.588522" lon="0.664824">
        <ele>2470.8</ele>
        <time>2014-07-17T08:25:34Z</time>
      </trkpt>
      <trkpt lat="42.588482" lon="0.664685">
        <ele>2471.2</ele>
        <time>2014-07-17T08:25:45Z</time>
      </trkpt>
      <trkpt lat="42.588448" lon="0.664568">
        <ele>2472.7</ele>
        <time>2014-07-17T08:25:58Z</time>
      </trkpt>
      <trkpt lat="42.588426" lon="0.664432">
        <ele>2473.5</ele>
        <time>2014-07-17T08:26:09Z</time>
      </trkpt>
      <trkpt lat="42.588425" lon="0.664305">
        <ele>2474.5</ele>
        <time>2014-07-17T08:26:23Z</time>
      </trkpt>
      <trkpt lat="42.588398" lon="0.664212">
        <ele>2475.7</ele>
        <time>2014-07-17T08:26:57Z</time>
      </trkpt>
      <trkpt lat="42.588355" lon="0.664153">
        <ele>2477.2</ele>
        <time>2014-07-17T08:27:23Z</time>
      </trkpt>
      <trkpt lat="42.588369" lon="0.664141">
        <ele>2477.1</ele>
        <time>2014-07-17T08:28:50Z</time>
      </trkpt>
      <trkpt lat="42.588338" lon="0.664167">
        <ele>2477.3</ele>
        <time>2014-07-17T08:30:28Z</time>
      </trkpt>
      <trkpt lat="42.588313" lon="0.664144">
        <ele>2478.7</ele>
        <time>2014-07-17T08:31:10Z</time>
      </trkpt>
      <trkpt lat="42.588280" lon="0.664030">
        <ele>2481.2</ele>
        <time>2014-07-17T08:31:27Z</time>
      </trkpt>
      <trkpt lat="42.588256" lon="0.663913">
        <ele>2484.0</ele>
        <time>2014-07-17T08:31:45Z</time>
      </trkpt>
      <trkpt lat="42.588266" lon="0.663782">
        <ele>2486.2</ele>
        <time>2014-07-17T08:32:01Z</time>
      </trkpt>
      <trkpt lat="42.588277" lon="0.663657">
        <ele>2488.2</ele>
        <time>2014-07-17T08:32:17Z</time>
      </trkpt>
      <trkpt lat="42.588300" lon="0.663545">
        <ele>2491.0</ele>
        <time>2014-07-17T08:32:36Z</time>
      </trkpt>
      <trkpt lat="42.588337" lon="0.663436">
        <ele>2493.3</ele>
        <time>2014-07-17T08:32:51Z</time>
      </trkpt>
      <trkpt lat="42.588401" lon="0.663334">
        <ele>2495.7</ele>
        <time>2014-07-17T08:33:09Z</time>
      </trkpt>
      <trkpt lat="42.588452" lon="0.663238">
        <ele>2498.9</ele>
        <time>2014-07-17T08:33:27Z</time>
      </trkpt>
      <trkpt lat="42.588491" lon="0.663123">
        <ele>2502.0</ele>
        <time>2014-07-17T08:33:46Z</time>
      </trkpt>
      <trkpt lat="42.588539" lon="0.663005">
        <ele>2504.0</ele>
        <time>2014-07-17T08:34:01Z</time>
      </trkpt>
      <trkpt lat="42.588530" lon="0.662912">
        <ele>2506.4</ele>
        <time>2014-07-17T08:34:19Z</time>
      </trkpt>
      <trkpt lat="42.588501" lon="0.662818">
        <ele>2507.9</ele>
        <time>2014-07-17T08:34:32Z</time>
      </trkpt>
      <trkpt lat="42.588506" lon="0.662694">
        <ele>2510.0</ele>
        <time>2014-07-17T08:34:47Z</time>
      </trkpt>
      <trkpt lat="42.588510" lon="0.662573">
        <ele>2513.4</ele>
        <time>2014-07-17T08:35:05Z</time>
      </trkpt>
      <trkpt lat="42.588527" lon="0.662428">
        <ele>2516.2</ele>
        <time>2014-07-17T08:35:22Z</time>
      </trkpt>
      <trkpt lat="42.588542" lon="0.662317">
        <ele>2519.2</ele>
        <time>2014-07-17T08:35:40Z</time>
      </trkpt>
      <trkpt lat="42.588549" lon="0.662215">
        <ele>2521.5</ele>
        <time>2014-07-17T08:35:55Z</time>
      </trkpt>
      <trkpt lat="42.588578" lon="0.662104">
        <ele>2524.0</ele>
        <time>2014-07-17T08:36:14Z</time>
      </trkpt>
      <trkpt lat="42.588605" lon="0.661981">
        <ele>2526.1</ele>
        <time>2014-07-17T08:36:30Z</time>
      </trkpt>
      <trkpt lat="42.588612" lon="0.661862">
        <ele>2527.6</ele>
        <time>2014-07-17T08:36:44Z</time>
      </trkpt>
      <trkpt lat="42.588658" lon="0.661750">
        <ele>2528.8</ele>
        <time>2014-07-17T08:36:57Z</time>
      </trkpt>
      <trkpt lat="42.588707" lon="0.661627">
        <ele>2531.1</ele>
        <time>2014-07-17T08:37:13Z</time>
      </trkpt>
      <trkpt lat="42.588700" lon="0.661513">
        <ele>2533.1</ele>
        <time>2014-07-17T08:37:29Z</time>
      </trkpt>
      <trkpt lat="42.588736" lon="0.661387">
        <ele>2535.4</ele>
        <time>2014-07-17T08:37:45Z</time>
      </trkpt>
      <trkpt lat="42.588749" lon="0.661296">
        <ele>2537.1</ele>
        <time>2014-07-17T08:38:02Z</time>
      </trkpt>
      <trkpt lat="42.588744" lon="0.661181">
        <ele>2538.4</ele>
        <time>2014-07-17T08:38:18Z</time>
      </trkpt>
      <trkpt lat="42.588754" lon="0.661041">
        <ele>2539.8</ele>
        <time>2014-07-17T08:38:32Z</time>
      </trkpt>
      <trkpt lat="42.588715" lon="0.660945">
        <ele>2541.6</ele>
        <time>2014-07-17T08:38:47Z</time>
      </trkpt>
      <trkpt lat="42.588709" lon="0.660847">
        <ele>2544.3</ele>
        <time>2014-07-17T08:39:03Z</time>
      </trkpt>
      <trkpt lat="42.588752" lon="0.660696">
        <ele>2546.4</ele>
        <time>2014-07-17T08:39:20Z</time>
      </trkpt>
      <trkpt lat="42.588757" lon="0.660561">
        <ele>2547.9</ele>
        <time>2014-07-17T08:39:35Z</time>
      </trkpt>
      <trkpt lat="42.588759" lon="0.660460">
        <ele>2549.6</ele>
        <time>2014-07-17T08:39:51Z</time>
      </trkpt>
      <trkpt lat="42.588767" lon="0.660329">
        <ele>2551.2</ele>
        <time>2014-07-17T08:40:07Z</time>
      </trkpt>
      <trkpt lat="42.588786" lon="0.660216">
        <ele>2553.4</ele>
        <time>2014-07-17T08:40:24Z</time>
      </trkpt>
      <trkpt lat="42.588812" lon="0.660102">
        <ele>2556.2</ele>
        <time>2014-07-17T08:40:43Z</time>
      </trkpt>
      <trkpt lat="42.588844" lon="0.659984">
        <ele>2559.2</ele>
        <time>2014-07-17T08:41:05Z</time>
      </trkpt>
      <trkpt lat="42.588882" lon="0.659868">
        <ele>2562.5</ele>
        <time>2014-07-17T08:41:27Z</time>
      </trkpt>
      <trkpt lat="42.588934" lon="0.659760">
        <ele>2565.3</ele>
        <time>2014-07-17T08:41:47Z</time>
      </trkpt>
      <trkpt lat="42.588932" lon="0.659614">
        <ele>2568.0</ele>
        <time>2014-07-17T08:42:05Z</time>
      </trkpt>
      <trkpt lat="42.588918" lon="0.659497">
        <ele>2571.0</ele>
        <time>2014-07-17T08:42:22Z</time>
      </trkpt>
      <trkpt lat="42.588985" lon="0.659403">
        <ele>2573.4</ele>
        <time>2014-07-17T08:42:39Z</time>
      </trkpt>
      <trkpt lat="42.589059" lon="0.659300">
        <ele>2575.1</ele>
        <time>2014-07-17T08:42:54Z</time>
      </trkpt>
      <trkpt lat="42.589061" lon="0.659149">
        <ele>2577.1</ele>
        <time>2014-07-17T08:43:10Z</time>
      </trkpt>
      <trkpt lat="42.589077" lon="0.659052">
        <ele>2579.3</ele>
        <time>2014-07-17T08:43:27Z</time>
      </trkpt>
      <trkpt lat="42.589174" lon="0.658996">
        <ele>2581.1</ele>
        <time>2014-07-17T08:43:44Z</time>
      </trkpt>
      <trkpt lat="42.589191" lon="0.658858">
        <ele>2583.6</ele>
        <time>2014-07-17T08:44:01Z</time>
      </trkpt>
      <trkpt lat="42.589186" lon="0.658755">
        <ele>2585.8</ele>
        <time>2014-07-17T08:44:21Z</time>
      </trkpt>
      <trkpt lat="42.589162" lon="0.658616">
        <ele>2587.9</ele>
        <time>2014-07-17T08:44:39Z</time>
      </trkpt>
      <trkpt lat="42.589184" lon="0.658498">
        <ele>2590.4</ele>
        <time>2014-07-17T08:44:56Z</time>
      </trkpt>
      <trkpt lat="42.589181" lon="0.658364">
        <ele>2591.9</ele>
        <time>2014-07-17T08:45:10Z</time>
      </trkpt>
      <trkpt lat="42.589193" lon="0.658237">
        <ele>2593.1</ele>
        <time>2014-07-17T08:45:23Z</time>
      </trkpt>
      <trkpt lat="42.589169" lon="0.658107">
        <ele>2594.9</ele>
        <time>2014-07-17T08:45:36Z</time>
      </trkpt>
      <trkpt lat="42.589148" lon="0.657993">
        <ele>2598.7</ele>
        <time>2014-07-17T08:47:53Z</time>
      </trkpt>
      <trkpt lat="42.589152" lon="0.657854">
        <ele>2600.6</ele>
        <time>2014-07-17T08:48:08Z</time>
      </trkpt>
      <trkpt lat="42.589177" lon="0.657731">
        <ele>2602.8</ele>
        <time>2014-07-17T08:48:23Z</time>
      </trkpt>
      <trkpt lat="42.589145" lon="0.657547">
        <ele>2607.5</ele>
        <time>2014-07-17T08:48:56Z</time>
      </trkpt>
      <trkpt lat="42.589131" lon="0.657378">
        <ele>2610.2</ele>
        <time>2014-07-17T08:49:15Z</time>
      </trkpt>
      <trkpt lat="42.589101" lon="0.657221">
        <ele>2612.7</ele>
        <time>2014-07-17T08:49:33Z</time>
      </trkpt>
      <trkpt lat="42.589101" lon="0.657082">
        <ele>2615.2</ele>
        <time>2014-07-17T08:49:53Z</time>
      </trkpt>
      <trkpt lat="42.589069" lon="0.656951">
        <ele>2619.1</ele>
        <time>2014-07-17T08:51:20Z</time>
      </trkpt>
      <trkpt lat="42.589054" lon="0.656786">
        <ele>2620.3</ele>
        <time>2014-07-17T08:51:35Z</time>
      </trkpt>
      <trkpt lat="42.589075" lon="0.656661">
        <ele>2621.6</ele>
        <time>2014-07-17T08:51:49Z</time>
      </trkpt>
      <trkpt lat="42.589055" lon="0.656531">
        <ele>2623.1</ele>
        <time>2014-07-17T08:52:04Z</time>
      </trkpt>
      <trkpt lat="42.589030" lon="0.656420">
        <ele>2625.2</ele>
        <time>2014-07-17T08:52:24Z</time>
      </trkpt>
      <trkpt lat="42.588944" lon="0.656278">
        <ele>2627.0</ele>
        <time>2014-07-17T08:52:44Z</time>
      </trkpt>
      <trkpt lat="42.588944" lon="0.656181">
        <ele>2628.3</ele>
        <time>2014-07-17T08:53:06Z</time>
      </trkpt>
      <trkpt lat="42.588911" lon="0.656105">
        <ele>2629.9</ele>
        <time>2014-07-17T08:53:22Z</time>
      </trkpt>
      <trkpt lat="42.588884" lon="0.655992">
        <ele>2630.5</ele>
        <time>2014-07-17T08:53:39Z</time>
      </trkpt>
      <trkpt lat="42.588806" lon="0.655857">
        <ele>2631.6</ele>
        <time>2014-07-17T08:53:57Z</time>
      </trkpt>
      <trkpt lat="42.588817" lon="0.655764">
        <ele>2632.7</ele>
        <time>2014-07-17T08:54:13Z</time>
      </trkpt>
      <trkpt lat="42.588819" lon="0.655635">
        <ele>2633.9</ele>
        <time>2014-07-17T08:54:30Z</time>
      </trkpt>
      <trkpt lat="42.588746" lon="0.655503">
        <ele>2634.9</ele>
        <time>2014-07-17T08:54:46Z</time>
      </trkpt>
      <trkpt lat="42.588780" lon="0.655415">
        <ele>2636.4</ele>
        <time>2014-07-17T08:55:04Z</time>
      </trkpt>
      <trkpt lat="42.588713" lon="0.655280">
        <ele>2637.9</ele>
        <time>2014-07-17T08:55:22Z</time>
      </trkpt>
      <trkpt lat="42.588790" lon="0.655220">
        <ele>2639.1</ele>
        <time>2014-07-17T08:55:39Z</time>
      </trkpt>
      <trkpt lat="42.588783" lon="0.655092">
        <ele>2641.6</ele>
        <time>2014-07-17T08:56:02Z</time>
      </trkpt>
      <trkpt lat="42.588791" lon="0.654970">
        <ele>2643.9</ele>
        <time>2014-07-17T08:56:23Z</time>
      </trkpt>
      <trkpt lat="42.588757" lon="0.654852">
        <ele>2645.8</ele>
        <time>2014-07-17T08:56:42Z</time>
      </trkpt>
      <trkpt lat="42.588758" lon="0.654743">
        <ele>2648.7</ele>
        <time>2014-07-17T08:57:04Z</time>
      </trkpt>
      <trkpt lat="42.588789" lon="0.654634">
        <ele>2651.0</ele>
        <time>2014-07-17T08:57:24Z</time>
      </trkpt>
      <trkpt lat="42.588816" lon="0.654518">
        <ele>2653.4</ele>
        <time>2014-07-17T08:57:45Z</time>
      </trkpt>
      <trkpt lat="42.588811" lon="0.654387">
        <ele>2655.6</ele>
        <time>2014-07-17T08:58:01Z</time>
      </trkpt>
      <trkpt lat="42.588804" lon="0.654289">
        <ele>2658.3</ele>
        <time>2014-07-17T08:58:21Z</time>
      </trkpt>
      <trkpt lat="42.588824" lon="0.654172">
        <ele>2660.6</ele>
        <time>2014-07-17T08:58:40Z</time>
      </trkpt>
      <trkpt lat="42.588870" lon="0.654110">
        <ele>2662.3</ele>
        <time>2014-07-17T08:58:58Z</time>
      </trkpt>
      <trkpt lat="42.588952" lon="0.654040">
        <ele>2664.3</ele>
        <time>2014-07-17T08:59:17Z</time>
      </trkpt>
      <trkpt lat="42.589014" lon="0.653918">
        <ele>2666.9</ele>
        <time>2014-07-17T08:59:39Z</time>
      </trkpt>
      <trkpt lat="42.589038" lon="0.653805">
        <ele>2669.8</ele>
        <time>2014-07-17T09:00:00Z</time>
      </trkpt>
      <trkpt lat="42.589086" lon="0.653698">
        <ele>2673.2</ele>
        <time>2014-07-17T09:00:20Z</time>
      </trkpt>
      <trkpt lat="42.589141" lon="0.653630">
        <ele>2675.5</ele>
        <time>2014-07-17T09:00:58Z</time>
      </trkpt>
      <trkpt lat="42.589201" lon="0.653515">
        <ele>2678.0</ele>
        <time>2014-07-17T09:01:14Z</time>
      </trkpt>
      <trkpt lat="42.589241" lon="0.653406">
        <ele>2682.1</ele>
        <time>2014-07-17T09:01:35Z</time>
      </trkpt>
      <trkpt lat="42.589306" lon="0.653320">
        <ele>2685.1</ele>
        <time>2014-07-17T09:01:56Z</time>
      </trkpt>
      <trkpt lat="42.589350" lon="0.653232">
        <ele>2688.2</ele>
        <time>2014-07-17T09:02:20Z</time>
      </trkpt>
      <trkpt lat="42.589452" lon="0.653150">
        <ele>2691.3</ele>
        <time>2014-07-17T09:02:41Z</time>
      </trkpt>
      <trkpt lat="42.589529" lon="0.653088">
        <ele>2694.1</ele>
        <time>2014-07-17T09:02:59Z</time>
      </trkpt>
      <trkpt lat="42.589601" lon="0.653040">
        <ele>2697.3</ele>
        <time>2014-07-17T09:03:22Z</time>
      </trkpt>
      <trkpt lat="42.589678" lon="0.652980">
        <ele>2701.5</ele>
        <time>2014-07-17T09:03:46Z</time>
      </trkpt>
      <trkpt lat="42.589736" lon="0.652884">
        <ele>2704.9</ele>
        <time>2014-07-17T09:04:08Z</time>
      </trkpt>
      <trkpt lat="42.589786" lon="0.652820">
        <ele>2707.7</ele>
        <time>2014-07-17T09:04:27Z</time>
      </trkpt>
      <trkpt lat="42.589824" lon="0.652786">
        <ele>2710.8</ele>
        <time>2014-07-17T09:04:51Z</time>
      </trkpt>
      <trkpt lat="42.589906" lon="0.652789">
        <ele>2714.9</ele>
        <time>2014-07-17T09:05:19Z</time>
      </trkpt>
      <trkpt lat="42.589977" lon="0.652765">
        <ele>2717.9</ele>
        <time>2014-07-17T09:05:39Z</time>
      </trkpt>
      <trkpt lat="42.590064" lon="0.652669">
        <ele>2721.2</ele>
        <time>2014-07-17T09:06:04Z</time>
      </trkpt>
      <trkpt lat="42.590075" lon="0.652594">
        <ele>2725.2</ele>
        <time>2014-07-17T09:06:34Z</time>
      </trkpt>
      <trkpt lat="42.590123" lon="0.652510">
        <ele>2728.6</ele>
        <time>2014-07-17T09:06:58Z</time>
      </trkpt>
      <trkpt lat="42.590176" lon="0.652445">
        <ele>2731.7</ele>
        <time>2014-07-17T09:07:18Z</time>
      </trkpt>
      <trkpt lat="42.590179" lon="0.652347">
        <ele>2735.4</ele>
        <time>2014-07-17T09:07:42Z</time>
      </trkpt>
      <trkpt lat="42.590227" lon="0.652295">
        <ele>2737.8</ele>
        <time>2014-07-17T09:07:59Z</time>
      </trkpt>
      <trkpt lat="42.590309" lon="0.652217">
        <ele>2738.9</ele>
        <time>2014-07-17T09:08:16Z</time>
      </trkpt>
      <trkpt lat="42.590336" lon="0.652090">
        <ele>2741.7</ele>
        <time>2014-07-17T09:08:31Z</time>
      </trkpt>
      <trkpt lat="42.590380" lon="0.651983">
        <ele>2744.4</ele>
        <time>2014-07-17T09:08:47Z</time>
      </trkpt>
      <trkpt lat="42.590442" lon="0.651948">
        <ele>2747.9</ele>
        <time>2014-07-17T09:09:05Z</time>
      </trkpt>
      <trkpt lat="42.590556" lon="0.651918">
        <ele>2750.8</ele>
        <time>2014-07-17T09:09:23Z</time>
      </trkpt>
      <trkpt lat="42.590570" lon="0.651920">
        <ele>2753.6</ele>
        <time>2014-07-17T09:09:43Z</time>
      </trkpt>
      <trkpt lat="42.590535" lon="0.651847">
        <ele>2756.7</ele>
        <time>2014-07-17T09:10:07Z</time>
      </trkpt>
      <trkpt lat="42.590566" lon="0.651784">
        <ele>2759.9</ele>
        <time>2014-07-17T09:10:30Z</time>
      </trkpt>
      <trkpt lat="42.590581" lon="0.651684">
        <ele>2763.8</ele>
        <time>2014-07-17T09:10:57Z</time>
      </trkpt>
      <trkpt lat="42.590623" lon="0.651545">
        <ele>2767.4</ele>
        <time>2014-07-17T09:11:21Z</time>
      </trkpt>
      <trkpt lat="42.590668" lon="0.651513">
        <ele>2770.8</ele>
        <time>2014-07-17T09:11:43Z</time>
      </trkpt>
      <trkpt lat="42.590737" lon="0.651515">
        <ele>2773.7</ele>
        <time>2014-07-17T09:12:05Z</time>
      </trkpt>
      <trkpt lat="42.590777" lon="0.651463">
        <ele>2776.8</ele>
        <time>2014-07-17T09:12:33Z</time>
      </trkpt>
      <trkpt lat="42.590871" lon="0.651433">
        <ele>2784.1</ele>
        <time>2014-07-17T09:14:40Z</time>
      </trkpt>
      <trkpt lat="42.590907" lon="0.651327">
        <ele>2785.6</ele>
        <time>2014-07-17T09:15:06Z</time>
      </trkpt>
      <trkpt lat="42.590920" lon="0.651192">
        <ele>2789.2</ele>
        <time>2014-07-17T09:15:27Z</time>
      </trkpt>
      <trkpt lat="42.590952" lon="0.651104">
        <ele>2792.9</ele>
        <time>2014-07-17T09:15:51Z</time>
      </trkpt>
      <trkpt lat="42.590947" lon="0.651010">
        <ele>2796.5</ele>
        <time>2014-07-17T09:16:17Z</time>
      </trkpt>
      <trkpt lat="42.590984" lon="0.650936">
        <ele>2800.5</ele>
        <time>2014-07-17T09:16:42Z</time>
      </trkpt>
      <trkpt lat="42.590981" lon="0.650834">
        <ele>2803.4</ele>
        <time>2014-07-17T09:17:05Z</time>
      </trkpt>
      <trkpt lat="42.590993" lon="0.650760">
        <ele>2808.3</ele>
        <time>2014-07-17T09:17:36Z</time>
      </trkpt>
      <trkpt lat="42.591053" lon="0.650663">
        <ele>2811.9</ele>
        <time>2014-07-17T09:18:02Z</time>
      </trkpt>
      <trkpt lat="42.591056" lon="0.650562">
        <ele>2815.7</ele>
        <time>2014-07-17T09:18:25Z</time>
      </trkpt>
      <trkpt lat="42.591105" lon="0.650465">
        <ele>2819.9</ele>
        <time>2014-07-17T09:18:51Z</time>
      </trkpt>
      <trkpt lat="42.591123" lon="0.650372">
        <ele>2823.9</ele>
        <time>2014-07-17T09:19:16Z</time>
      </trkpt>
      <trkpt lat="42.591123" lon="0.650324">
        <ele>2828.1</ele>
        <time>2014-07-17T09:19:57Z</time>
      </trkpt>
      <trkpt lat="42.591109" lon="0.650205">
        <ele>2830.1</ele>
        <time>2014-07-17T09:20:25Z</time>
      </trkpt>
      <trkpt lat="42.591132" lon="0.650104">
        <ele>2833.7</ele>
        <time>2014-07-17T09:20:47Z</time>
      </trkpt>
      <trkpt lat="42.591194" lon="0.649980">
        <ele>2836.9</ele>
        <time>2014-07-17T09:21:07Z</time>
      </trkpt>
      <trkpt lat="42.591207" lon="0.649929">
        <ele>2840.9</ele>
        <time>2014-07-17T09:22:51Z</time>
      </trkpt>
      <trkpt lat="42.591270" lon="0.649936">
        <ele>2840.1</ele>
        <time>2014-07-17T09:26:27Z</time>
      </trkpt>
      <trkpt lat="42.591371" lon="0.649914">
        <ele>2842.5</ele>
        <time>2014-07-17T09:26:46Z</time>
      </trkpt>
      <trkpt lat="42.591449" lon="0.649847">
        <ele>2843.7</ele>
        <time>2014-07-17T09:27:15Z</time>
      </trkpt>
      <trkpt lat="42.591492" lon="0.649725">
        <ele>2840.0</ele>
        <time>2014-07-17T09:27:31Z</time>
      </trkpt>
      <trkpt lat="42.591559" lon="0.649662">
        <ele>2837.9</ele>
        <time>2014-07-17T09:27:43Z</time>
      </trkpt>
      <trkpt lat="42.591655" lon="0.649668">
        <ele>2839.2</ele>
        <time>2014-07-17T09:28:00Z</time>
      </trkpt>
      <trkpt lat="42.591755" lon="0.649622">
        <ele>2841.9</ele>
        <time>2014-07-17T09:28:19Z</time>
      </trkpt>
      <trkpt lat="42.591842" lon="0.649576">
        <ele>2843.8</ele>
        <time>2014-07-17T09:28:36Z</time>
      </trkpt>
      <trkpt lat="42.591938" lon="0.649549">
        <ele>2846.0</ele>
        <time>2014-07-17T09:28:54Z</time>
      </trkpt>
      <trkpt lat="42.592013" lon="0.649482">
        <ele>2845.9</ele>
        <time>2014-07-17T09:29:09Z</time>
      </trkpt>
      <trkpt lat="42.592107" lon="0.649488">
        <ele>2847.8</ele>
        <time>2014-07-17T09:29:28Z</time>
      </trkpt>
      <trkpt lat="42.592202" lon="0.649477">
        <ele>2848.6</ele>
        <time>2014-07-17T09:29:49Z</time>
      </trkpt>
      <trkpt lat="42.592305" lon="0.649442">
        <ele>2849.6</ele>
        <time>2014-07-17T09:30:03Z</time>
      </trkpt>
      <trkpt lat="42.592400" lon="0.649429">
        <ele>2852.1</ele>
        <time>2014-07-17T09:30:21Z</time>
      </trkpt>
      <trkpt lat="42.592477" lon="0.649376">
        <ele>2856.1</ele>
        <time>2014-07-17T09:30:46Z</time>
      </trkpt>
      <trkpt lat="42.592564" lon="0.649345">
        <ele>2859.7</ele>
        <time>2014-07-17T09:31:07Z</time>
      </trkpt>
      <trkpt lat="42.592664" lon="0.649358">
        <ele>2860.8</ele>
        <time>2014-07-17T09:31:21Z</time>
      </trkpt>
      <trkpt lat="42.592755" lon="0.649374">
        <ele>2863.4</ele>
        <time>2014-07-17T09:31:40Z</time>
      </trkpt>
      <trkpt lat="42.592840" lon="0.649358">
        <ele>2866.9</ele>
        <time>2014-07-17T09:32:06Z</time>
      </trkpt>
      <trkpt lat="42.592888" lon="0.649365">
        <ele>2869.9</ele>
        <time>2014-07-17T09:32:25Z</time>
      </trkpt>
      <trkpt lat="42.592953" lon="0.649338">
        <ele>2875.6</ele>
        <time>2014-07-17T09:33:01Z</time>
      </trkpt>
      <trkpt lat="42.593012" lon="0.649363">
        <ele>2882.1</ele>
        <time>2014-07-17T09:33:40Z</time>
      </trkpt>
      <trkpt lat="42.593078" lon="0.649436">
        <ele>2883.6</ele>
        <time>2014-07-17T09:34:10Z</time>
      </trkpt>
      <trkpt lat="42.593084" lon="0.649467">
        <ele>2885.0</ele>
        <time>2014-07-17T09:35:38Z</time>
      </trkpt>
      <trkpt lat="42.593024" lon="0.649534">
        <ele>2886.8</ele>
        <time>2014-07-17T09:36:36Z</time>
      </trkpt>
      <trkpt lat="42.593051" lon="0.649634">
        <ele>2891.3</ele>
        <time>2014-07-17T09:36:56Z</time>
      </trkpt>
      <trkpt lat="42.593063" lon="0.649723">
        <ele>2895.5</ele>
        <time>2014-07-17T09:37:19Z</time>
      </trkpt>
      <trkpt lat="42.593124" lon="0.649836">
        <ele>2899.0</ele>
        <time>2014-07-17T09:37:43Z</time>
      </trkpt>
      <trkpt lat="42.593096" lon="0.649911">
        <ele>2903.2</ele>
        <time>2014-07-17T09:38:09Z</time>
      </trkpt>
      <trkpt lat="42.593010" lon="0.649963">
        <ele>2908.1</ele>
        <time>2014-07-17T09:38:37Z</time>
      </trkpt>
      <trkpt lat="42.593022" lon="0.650101">
        <ele>2914.3</ele>
        <time>2014-07-17T09:39:22Z</time>
      </trkpt>
      <trkpt lat="42.593071" lon="0.650164">
        <ele>2918.5</ele>
        <time>2014-07-17T09:40:00Z</time>
      </trkpt>
      <trkpt lat="42.593042" lon="0.650222">
        <ele>2922.8</ele>
        <time>2014-07-17T09:40:28Z</time>
      </trkpt>
      <trkpt lat="42.593033" lon="0.650310">
        <ele>2928.4</ele>
        <time>2014-07-17T09:41:04Z</time>
      </trkpt>
      <trkpt lat="42.593014" lon="0.650394">
        <ele>2933.1</ele>
        <time>2014-07-17T09:41:31Z</time>
      </trkpt>
      <trkpt lat="42.592946" lon="0.650451">
        <ele>2937.7</ele>
        <time>2014-07-17T09:41:58Z</time>
      </trkpt>
      <trkpt lat="42.592869" lon="0.650491">
        <ele>2941.0</ele>
        <time>2014-07-17T09:42:21Z</time>
      </trkpt>
      <trkpt lat="42.592910" lon="0.650582">
        <ele>2948.9</ele>
        <time>2014-07-17T09:44:58Z</time>
      </trkpt>
      <trkpt lat="42.592875" lon="0.650664">
        <ele>2951.2</ele>
        <time>2014-07-17T09:45:22Z</time>
      </trkpt>
      <trkpt lat="42.592908" lon="0.650726">
        <ele>2953.0</ele>
        <time>2014-07-17T09:45:40Z</time>
      </trkpt>
      <trkpt lat="42.592875" lon="0.650770">
        <ele>2956.9</ele>
        <time>2014-07-17T09:46:14Z</time>
      </trkpt>
      <trkpt lat="42.592882" lon="0.650803">
        <ele>2962.7</ele>
        <time>2014-07-17T09:46:47Z</time>
      </trkpt>
      <trkpt lat="42.592883" lon="0.650924">
        <ele>2963.9</ele>
        <time>2014-07-17T09:47:23Z</time>
      </trkpt>
      <trkpt lat="42.592942" lon="0.650958">
        <ele>2968.3</ele>
        <time>2014-07-17T09:47:48Z</time>
      </trkpt>
      <trkpt lat="42.593006" lon="0.651008">
        <ele>2972.5</ele>
        <time>2014-07-17T09:48:18Z</time>
      </trkpt>
      <trkpt lat="42.593062" lon="0.651084">
        <ele>2979.5</ele>
        <time>2014-07-17T09:49:14Z</time>
      </trkpt>
      <trkpt lat="42.593057" lon="0.651207">
        <ele>2981.8</ele>
        <time>2014-07-17T09:49:37Z</time>
      </trkpt>
      <trkpt lat="42.593120" lon="0.651242">
        <ele>2982.0</ele>
        <time>2014-07-17T09:52:22Z</time>
      </trkpt>
      <trkpt lat="42.593200" lon="0.651306">
        <ele>2980.8</ele>
        <time>2014-07-17T09:52:40Z</time>
      </trkpt>
      <trkpt lat="42.593270" lon="0.651361">
        <ele>2979.5</ele>
        <time>2014-07-17T09:53:01Z</time>
      </trkpt>
      <trkpt lat="42.593324" lon="0.651451">
        <ele>2978.5</ele>
        <time>2014-07-17T09:53:15Z</time>
      </trkpt>
      <trkpt lat="42.593410" lon="0.651519">
        <ele>2979.2</ele>
        <time>2014-07-17T09:53:35Z</time>
      </trkpt>
      <trkpt lat="42.593482" lon="0.651526">
        <ele>2979.0</ele>
        <time>2014-07-17T09:54:02Z</time>
      </trkpt>
      <trkpt lat="42.593556" lon="0.651434">
        <ele>2975.6</ele>
        <time>2014-07-17T09:54:19Z</time>
      </trkpt>
      <trkpt lat="42.593616" lon="0.651404">
        <ele>2974.2</ele>
        <time>2014-07-17T09:54:51Z</time>
      </trkpt>
      <trkpt lat="42.593705" lon="0.651417">
        <ele>2976.2</ele>
        <time>2014-07-17T09:55:13Z</time>
      </trkpt>
      <trkpt lat="42.593725" lon="0.651280">
        <ele>2975.7</ele>
        <time>2014-07-17T09:55:29Z</time>
      </trkpt>
      <trkpt lat="42.593804" lon="0.651200">
        <ele>2977.0</ele>
        <time>2014-07-17T09:55:52Z</time>
      </trkpt>
      <trkpt lat="42.593875" lon="0.651146">
        <ele>2980.5</ele>
        <time>2014-07-17T09:56:20Z</time>
      </trkpt>
      <trkpt lat="42.593942" lon="0.651108">
        <ele>2985.6</ele>
        <time>2014-07-17T09:56:52Z</time>
      </trkpt>
      <trkpt lat="42.593979" lon="0.651130">
        <ele>2990.5</ele>
        <time>2014-07-17T09:58:53Z</time>
      </trkpt>
      <trkpt lat="42.593987" lon="0.651246">
        <ele>2993.4</ele>
        <time>2014-07-17T09:59:16Z</time>
      </trkpt>
      <trkpt lat="42.594018" lon="0.651342">
        <ele>3001.7</ele>
        <time>2014-07-17T10:00:22Z</time>
      </trkpt>
      <trkpt lat="42.594001" lon="0.651458">
        <ele>3004.5</ele>
        <time>2014-07-17T10:01:02Z</time>
      </trkpt>
      <trkpt lat="42.593934" lon="0.651542">
        <ele>3006.1</ele>
        <time>2014-07-17T10:01:21Z</time>
      </trkpt>
      <trkpt lat="42.593927" lon="0.651658">
        <ele>3008.8</ele>
        <time>2014-07-17T10:01:40Z</time>
      </trkpt>
      <trkpt lat="42.593936" lon="0.651790">
        <ele>3011.2</ele>
        <time>2014-07-17T10:01:57Z</time>
      </trkpt>
      <trkpt lat="42.593910" lon="0.651908">
        <ele>3012.9</ele>
        <time>2014-07-17T10:02:12Z</time>
      </trkpt>
      <trkpt lat="42.593902" lon="0.652012">
        <ele>3013.0</ele>
        <time>2014-07-17T10:02:31Z</time>
      </trkpt>
      <trkpt lat="42.593909" lon="0.652095">
        <ele>3012.4</ele>
        <time>2014-07-17T10:25:28Z</time>
      </trkpt>
      <trkpt lat="42.593878" lon="0.652190">
        <ele>3011.7</ele>
        <time>2014-07-17T10:25:46Z</time>
      </trkpt>
      <trkpt lat="42.593870" lon="0.652304">
        <ele>3009.3</ele>
        <time>2014-07-17T10:28:52Z</time>
      </trkpt>
      <trkpt lat="42.593889" lon="0.652396">
        <ele>3008.9</ele>
        <time>2014-07-17T10:29:55Z</time>
      </trkpt>
      <trkpt lat="42.593851" lon="0.652602">
        <ele>3007.6</ele>
        <time>2014-07-17T10:32:21Z</time>
      </trkpt>
      <trkpt lat="42.593876" lon="0.652757">
        <ele>3007.6</ele>
        <time>2014-07-17T10:33:43Z</time>
      </trkpt>
      <trkpt lat="42.593922" lon="0.652780">
        <ele>3005.2</ele>
        <time>2014-07-17T10:51:23Z</time>
      </trkpt>
      <trkpt lat="42.593979" lon="0.652836">
        <ele>3006.8</ele>
        <time>2014-07-17T10:52:00Z</time>
      </trkpt>
      <trkpt lat="42.593978" lon="0.652921">
        <ele>3012.1</ele>
        <time>2014-07-17T10:52:27Z</time>
      </trkpt>
      <trkpt lat="42.594000" lon="0.652977">
        <ele>3013.6</ele>
        <time>2014-07-17T10:53:10Z</time>
      </trkpt>
      <trkpt lat="42.594012" lon="0.653066">
        <ele>3015.6</ele>
        <time>2014-07-17T10:53:24Z</time>
      </trkpt>
      <trkpt lat="42.593975" lon="0.653150">
        <ele>3018.5</ele>
        <time>2014-07-17T11:35:35Z</time>
      </trkpt>
      <trkpt lat="42.593965" lon="0.653168">
        <ele>3018.4</ele>
        <time>2014-07-17T11:36:18Z</time>
      </trkpt>
      <trkpt lat="42.593965" lon="0.653275">
        <ele>3017.6</ele>
        <time>2014-07-17T11:37:02Z</time>
      </trkpt>
      <trkpt lat="42.593936" lon="0.653392">
        <ele>3017.1</ele>
        <time>2014-07-17T11:37:36Z</time>
      </trkpt>
      <trkpt lat="42.593901" lon="0.653520">
        <ele>3016.8</ele>
        <time>2014-07-17T11:37:52Z</time>
      </trkpt>
      <trkpt lat="42.593860" lon="0.653630">
        <ele>3016.3</ele>
        <time>2014-07-17T11:38:15Z</time>
      </trkpt>
      <trkpt lat="42.593849" lon="0.653758">
        <ele>3015.2</ele>
        <time>2014-07-17T11:38:31Z</time>
      </trkpt>
      <trkpt lat="42.593824" lon="0.653882">
        <ele>3013.1</ele>
        <time>2014-07-17T11:38:47Z</time>
      </trkpt>
      <trkpt lat="42.593783" lon="0.653994">
        <ele>3011.9</ele>
        <time>2014-07-17T11:39:05Z</time>
      </trkpt>
      <trkpt lat="42.593768" lon="0.654119">
        <ele>3011.4</ele>
        <time>2014-07-17T11:39:22Z</time>
      </trkpt>
      <trkpt lat="42.593725" lon="0.654231">
        <ele>3012.9</ele>
        <time>2014-07-17T11:39:38Z</time>
      </trkpt>
      <trkpt lat="42.593710" lon="0.654253">
        <ele>3013.2</ele>
        <time>2014-07-17T11:40:10Z</time>
      </trkpt>
      <trkpt lat="42.593684" lon="0.654371">
        <ele>3011.9</ele>
        <time>2014-07-17T11:40:26Z</time>
      </trkpt>
      <trkpt lat="42.593668" lon="0.654495">
        <ele>3011.9</ele>
        <time>2014-07-17T11:40:42Z</time>
      </trkpt>
      <trkpt lat="42.593642" lon="0.654617">
        <ele>3012.2</ele>
        <time>2014-07-17T11:41:22Z</time>
      </trkpt>
      <trkpt lat="42.593630" lon="0.654750">
        <ele>3010.8</ele>
        <time>2014-07-17T11:41:46Z</time>
      </trkpt>
      <trkpt lat="42.593614" lon="0.654881">
        <ele>3009.8</ele>
        <time>2014-07-17T11:41:56Z</time>
      </trkpt>
      <trkpt lat="42.593574" lon="0.654991">
        <ele>3009.1</ele>
        <time>2014-07-17T11:42:03Z</time>
      </trkpt>
      <trkpt lat="42.593580" lon="0.655144">
        <ele>3008.1</ele>
        <time>2014-07-17T11:42:13Z</time>
      </trkpt>
      <trkpt lat="42.593572" lon="0.655232">
        <ele>3005.8</ele>
        <time>2014-07-17T11:42:42Z</time>
      </trkpt>
      <trkpt lat="42.593620" lon="0.655349">
        <ele>3003.5</ele>
        <time>2014-07-17T11:42:58Z</time>
      </trkpt>
      <trkpt lat="42.593630" lon="0.655478">
        <ele>3002.0</ele>
        <time>2014-07-17T11:43:13Z</time>
      </trkpt>
      <trkpt lat="42.593661" lon="0.655607">
        <ele>2999.2</ele>
        <time>2014-07-17T11:43:31Z</time>
      </trkpt>
      <trkpt lat="42.593663" lon="0.655625">
        <ele>2999.0</ele>
        <time>2014-07-17T11:44:08Z</time>
      </trkpt>
      <trkpt lat="42.593685" lon="0.655774">
        <ele>2998.9</ele>
        <time>2014-07-17T11:44:18Z</time>
      </trkpt>
      <trkpt lat="42.593696" lon="0.655906">
        <ele>2998.1</ele>
        <time>2014-07-17T11:44:33Z</time>
      </trkpt>
      <trkpt lat="42.593699" lon="0.656040">
        <ele>2999.2</ele>
        <time>2014-07-17T11:44:44Z</time>
      </trkpt>
      <trkpt lat="42.593683" lon="0.656140">
        <ele>3000.3</ele>
        <time>2014-07-17T11:45:09Z</time>
      </trkpt>
      <trkpt lat="42.593693" lon="0.656277">
        <ele>3000.8</ele>
        <time>2014-07-17T11:45:23Z</time>
      </trkpt>
      <trkpt lat="42.593692" lon="0.656426">
        <ele>3002.1</ele>
        <time>2014-07-17T11:45:36Z</time>
      </trkpt>
      <trkpt lat="42.593705" lon="0.656520">
        <ele>3000.8</ele>
        <time>2014-07-17T11:45:51Z</time>
      </trkpt>
      <trkpt lat="42.593722" lon="0.656642">
        <ele>3000.5</ele>
        <time>2014-07-17T11:46:33Z</time>
      </trkpt>
      <trkpt lat="42.593711" lon="0.656749">
        <ele>2999.4</ele>
        <time>2014-07-17T11:46:57Z</time>
      </trkpt>
      <trkpt lat="42.593667" lon="0.656790">
        <ele>2996.3</ele>
        <time>2014-07-17T11:47:35Z</time>
      </trkpt>
      <trkpt lat="42.593613" lon="0.656838">
        <ele>2992.6</ele>
        <time>2014-07-17T11:47:57Z</time>
      </trkpt>
      <trkpt lat="42.593559" lon="0.656834">
        <ele>2992.0</ele>
        <time>2014-07-17T11:51:52Z</time>
      </trkpt>
      <trkpt lat="42.593456" lon="0.656868">
        <ele>2991.8</ele>
        <time>2014-07-17T11:52:06Z</time>
      </trkpt>
      <trkpt lat="42.593429" lon="0.656973">
        <ele>2990.5</ele>
        <time>2014-07-17T11:55:31Z</time>
      </trkpt>
      <trkpt lat="42.593513" lon="0.657028">
        <ele>2987.0</ele>
        <time>2014-07-17T11:55:45Z</time>
      </trkpt>
      <trkpt lat="42.593475" lon="0.657131">
        <ele>2983.6</ele>
        <time>2014-07-17T11:55:58Z</time>
      </trkpt>
      <trkpt lat="42.593463" lon="0.657209">
        <ele>2978.8</ele>
        <time>2014-07-17T11:56:13Z</time>
      </trkpt>
      <trkpt lat="42.593428" lon="0.657308">
        <ele>2974.0</ele>
        <time>2014-07-17T11:56:35Z</time>
      </trkpt>
      <trkpt lat="42.593425" lon="0.657407">
        <ele>2969.7</ele>
        <time>2014-07-17T11:56:56Z</time>
      </trkpt>
      <trkpt lat="42.593426" lon="0.657504">
        <ele>2964.4</ele>
        <time>2014-07-17T11:57:19Z</time>
      </trkpt>
      <trkpt lat="42.593462" lon="0.657571">
        <ele>2959.8</ele>
        <time>2014-07-17T11:57:45Z</time>
      </trkpt>
      <trkpt lat="42.593483" lon="0.657688">
        <ele>2955.0</ele>
        <time>2014-07-17T11:58:09Z</time>
      </trkpt>
      <trkpt lat="42.593463" lon="0.657772">
        <ele>2950.8</ele>
        <time>2014-07-17T11:58:32Z</time>
      </trkpt>
      <trkpt lat="42.593442" lon="0.657843">
        <ele>2947.6</ele>
        <time>2014-07-17T11:58:48Z</time>
      </trkpt>
      <trkpt lat="42.593433" lon="0.657889">
        <ele>2944.1</ele>
        <time>2014-07-17T11:59:06Z</time>
      </trkpt>
      <trkpt lat="42.593388" lon="0.657977">
        <ele>2938.9</ele>
        <time>2014-07-17T11:59:30Z</time>
      </trkpt>
      <trkpt lat="42.593426" lon="0.658087">
        <ele>2934.9</ele>
        <time>2014-07-17T11:59:50Z</time>
      </trkpt>
      <trkpt lat="42.593420" lon="0.658177">
        <ele>2930.9</ele>
        <time>2014-07-17T12:00:07Z</time>
      </trkpt>
      <trkpt lat="42.593384" lon="0.658273">
        <ele>2927.2</ele>
        <time>2014-07-17T12:00:26Z</time>
      </trkpt>
      <trkpt lat="42.593435" lon="0.658367">
        <ele>2923.3</ele>
        <time>2014-07-17T12:00:42Z</time>
      </trkpt>
      <trkpt lat="42.593393" lon="0.658466">
        <ele>2919.6</ele>
        <time>2014-07-17T12:01:00Z</time>
      </trkpt>
      <trkpt lat="42.593405" lon="0.658577">
        <ele>2916.3</ele>
        <time>2014-07-17T12:01:14Z</time>
      </trkpt>
      <trkpt lat="42.593353" lon="0.658667">
        <ele>2913.2</ele>
        <time>2014-07-17T12:01:26Z</time>
      </trkpt>
      <trkpt lat="42.593290" lon="0.658746">
        <ele>2909.7</ele>
        <time>2014-07-17T12:01:41Z</time>
      </trkpt>
      <trkpt lat="42.593246" lon="0.658839">
        <ele>2906.6</ele>
        <time>2014-07-17T12:01:56Z</time>
      </trkpt>
      <trkpt lat="42.593265" lon="0.658962">
        <ele>2903.2</ele>
        <time>2014-07-17T12:02:12Z</time>
      </trkpt>
      <trkpt lat="42.593227" lon="0.659058">
        <ele>2899.7</ele>
        <time>2014-07-17T12:02:28Z</time>
      </trkpt>
      <trkpt lat="42.593189" lon="0.659141">
        <ele>2896.5</ele>
        <time>2014-07-17T12:02:42Z</time>
      </trkpt>
      <trkpt lat="42.593137" lon="0.659220">
        <ele>2893.5</ele>
        <time>2014-07-17T12:02:56Z</time>
      </trkpt>
      <trkpt lat="42.593087" lon="0.659277">
        <ele>2890.4</ele>
        <time>2014-07-17T12:03:09Z</time>
      </trkpt>
      <trkpt lat="42.593065" lon="0.659372">
        <ele>2887.8</ele>
        <time>2014-07-17T12:03:21Z</time>
      </trkpt>
      <trkpt lat="42.593062" lon="0.659462">
        <ele>2884.1</ele>
        <time>2014-07-17T12:03:35Z</time>
      </trkpt>
      <trkpt lat="42.593019" lon="0.659523">
        <ele>2879.5</ele>
        <time>2014-07-17T12:03:53Z</time>
      </trkpt>
      <trkpt lat="42.593060" lon="0.659625">
        <ele>2875.6</ele>
        <time>2014-07-17T12:04:08Z</time>
      </trkpt>
      <trkpt lat="42.593034" lon="0.659695">
        <ele>2872.1</ele>
        <time>2014-07-17T12:04:22Z</time>
      </trkpt>
      <trkpt lat="42.593050" lon="0.659796">
        <ele>2869.1</ele>
        <time>2014-07-17T12:04:38Z</time>
      </trkpt>
      <trkpt lat="42.593082" lon="0.659882">
        <ele>2866.1</ele>
        <time>2014-07-17T12:04:52Z</time>
      </trkpt>
      <trkpt lat="42.593140" lon="0.659937">
        <ele>2863.9</ele>
        <time>2014-07-17T12:05:05Z</time>
      </trkpt>
      <trkpt lat="42.593199" lon="0.660006">
        <ele>2861.1</ele>
        <time>2014-07-17T12:05:18Z</time>
      </trkpt>
      <trkpt lat="42.593292" lon="0.659975">
        <ele>2858.5</ele>
        <time>2014-07-17T12:05:32Z</time>
      </trkpt>
      <trkpt lat="42.593305" lon="0.660102">
        <ele>2854.8</ele>
        <time>2014-07-17T12:05:46Z</time>
      </trkpt>
      <trkpt lat="42.593378" lon="0.660135">
        <ele>2851.8</ele>
        <time>2014-07-17T12:06:04Z</time>
      </trkpt>
      <trkpt lat="42.593458" lon="0.660217">
        <ele>2849.5</ele>
        <time>2014-07-17T12:06:20Z</time>
      </trkpt>
      <trkpt lat="42.593468" lon="0.660317">
        <ele>2847.0</ele>
        <time>2014-07-17T12:07:00Z</time>
      </trkpt>
      <trkpt lat="42.593437" lon="0.660407">
        <ele>2844.6</ele>
        <time>2014-07-17T12:07:19Z</time>
      </trkpt>
      <trkpt lat="42.593465" lon="0.660468">
        <ele>2840.8</ele>
        <time>2014-07-17T12:07:43Z</time>
      </trkpt>
      <trkpt lat="42.593483" lon="0.660507">
        <ele>2836.9</ele>
        <time>2014-07-17T12:08:10Z</time>
      </trkpt>
      <trkpt lat="42.593443" lon="0.660638">
        <ele>2835.1</ele>
        <time>2014-07-17T12:08:51Z</time>
      </trkpt>
      <trkpt lat="42.593475" lon="0.660723">
        <ele>2830.7</ele>
        <time>2014-07-17T12:09:14Z</time>
      </trkpt>
      <trkpt lat="42.593447" lon="0.660842">
        <ele>2828.3</ele>
        <time>2014-07-17T12:09:29Z</time>
      </trkpt>
      <trkpt lat="42.593451" lon="0.660904">
        <ele>2825.6</ele>
        <time>2014-07-17T12:09:47Z</time>
      </trkpt>
      <trkpt lat="42.593498" lon="0.661009">
        <ele>2821.9</ele>
        <time>2014-07-17T12:10:05Z</time>
      </trkpt>
      <trkpt lat="42.593509" lon="0.661111">
        <ele>2819.2</ele>
        <time>2014-07-17T12:10:21Z</time>
      </trkpt>
      <trkpt lat="42.593497" lon="0.661142">
        <ele>2817.1</ele>
        <time>2014-07-17T12:10:47Z</time>
      </trkpt>
      <trkpt lat="42.593574" lon="0.661163">
        <ele>2815.3</ele>
        <time>2014-07-17T12:11:03Z</time>
      </trkpt>
      <trkpt lat="42.593627" lon="0.661267">
        <ele>2813.5</ele>
        <time>2014-07-17T12:11:11Z</time>
      </trkpt>
      <trkpt lat="42.593657" lon="0.661392">
        <ele>2811.7</ele>
        <time>2014-07-17T12:11:18Z</time>
      </trkpt>
      <trkpt lat="42.593697" lon="0.661507">
        <ele>2810.0</ele>
        <time>2014-07-17T12:11:24Z</time>
      </trkpt>
      <trkpt lat="42.593741" lon="0.661604">
        <ele>2807.3</ele>
        <time>2014-07-17T12:11:31Z</time>
      </trkpt>
      <trkpt lat="42.593770" lon="0.661699">
        <ele>2804.8</ele>
        <time>2014-07-17T12:11:39Z</time>
      </trkpt>
      <trkpt lat="42.593820" lon="0.661806">
        <ele>2802.1</ele>
        <time>2014-07-17T12:11:47Z</time>
      </trkpt>
      <trkpt lat="42.593800" lon="0.661858">
        <ele>2798.7</ele>
        <time>2014-07-17T12:12:23Z</time>
      </trkpt>
      <trkpt lat="42.593853" lon="0.661922">
        <ele>2797.4</ele>
        <time>2014-07-17T12:12:42Z</time>
      </trkpt>
      <trkpt lat="42.593931" lon="0.661992">
        <ele>2795.7</ele>
        <time>2014-07-17T12:12:58Z</time>
      </trkpt>
      <trkpt lat="42.593970" lon="0.662077">
        <ele>2792.7</ele>
        <time>2014-07-17T12:13:29Z</time>
      </trkpt>
      <trkpt lat="42.594014" lon="0.662123">
        <ele>2789.0</ele>
        <time>2014-07-17T12:13:56Z</time>
      </trkpt>
      <trkpt lat="42.594071" lon="0.662177">
        <ele>2786.7</ele>
        <time>2014-07-17T12:14:11Z</time>
      </trkpt>
      <trkpt lat="42.594095" lon="0.662298">
        <ele>2784.3</ele>
        <time>2014-07-17T12:14:21Z</time>
      </trkpt>
      <trkpt lat="42.594072" lon="0.662428">
        <ele>2782.6</ele>
        <time>2014-07-17T12:14:30Z</time>
      </trkpt>
      <trkpt lat="42.594120" lon="0.662533">
        <ele>2782.0</ele>
        <time>2014-07-17T12:14:40Z</time>
      </trkpt>
      <trkpt lat="42.594214" lon="0.662531">
        <ele>2780.6</ele>
        <time>2014-07-17T12:14:54Z</time>
      </trkpt>
      <trkpt lat="42.594302" lon="0.662561">
        <ele>2779.7</ele>
        <time>2014-07-17T12:15:08Z</time>
      </trkpt>
      <trkpt lat="42.594360" lon="0.662667">
        <ele>2777.5</ele>
        <time>2014-07-17T12:15:34Z</time>
      </trkpt>
      <trkpt lat="42.594400" lon="0.662765">
        <ele>2776.7</ele>
        <time>2014-07-17T12:16:15Z</time>
      </trkpt>
      <trkpt lat="42.594484" lon="0.662804">
        <ele>2775.2</ele>
        <time>2014-07-17T12:16:30Z</time>
      </trkpt>
      <trkpt lat="42.594558" lon="0.662874">
        <ele>2774.8</ele>
        <time>2014-07-17T12:16:47Z</time>
      </trkpt>
      <trkpt lat="42.594661" lon="0.662855">
        <ele>2774.6</ele>
        <time>2014-07-17T12:17:01Z</time>
      </trkpt>
      <trkpt lat="42.594690" lon="0.662957">
        <ele>2773.3</ele>
        <time>2014-07-17T12:17:59Z</time>
      </trkpt>
      <trkpt lat="42.594758" lon="0.663022">
        <ele>2771.2</ele>
        <time>2014-07-17T12:18:14Z</time>
      </trkpt>
      <trkpt lat="42.594843" lon="0.662980">
        <ele>2769.8</ele>
        <time>2014-07-17T12:18:30Z</time>
      </trkpt>
      <trkpt lat="42.594894" lon="0.662898">
        <ele>2767.9</ele>
        <time>2014-07-17T12:18:55Z</time>
      </trkpt>
      <trkpt lat="42.594949" lon="0.662833">
        <ele>2766.4</ele>
        <time>2014-07-17T12:19:18Z</time>
      </trkpt>
      <trkpt lat="42.594986" lon="0.662888">
        <ele>2764.1</ele>
        <time>2014-07-17T12:20:13Z</time>
      </trkpt>
      <trkpt lat="42.594987" lon="0.662986">
        <ele>2762.5</ele>
        <time>2014-07-17T12:20:37Z</time>
      </trkpt>
      <trkpt lat="42.594983" lon="0.663114">
        <ele>2761.2</ele>
        <time>2014-07-17T12:20:52Z</time>
      </trkpt>
      <trkpt lat="42.594957" lon="0.663250">
        <ele>2760.3</ele>
        <time>2014-07-17T12:21:06Z</time>
      </trkpt>
      <trkpt lat="42.594974" lon="0.663358">
        <ele>2761.1</ele>
        <time>2014-07-17T12:21:21Z</time>
      </trkpt>
      <trkpt lat="42.594932" lon="0.663480">
        <ele>2759.2</ele>
        <time>2014-07-17T12:21:43Z</time>
      </trkpt>
      <trkpt lat="42.594959" lon="0.663584">
        <ele>2758.8</ele>
        <time>2014-07-17T12:21:56Z</time>
      </trkpt>
      <trkpt lat="42.594947" lon="0.663733">
        <ele>2758.1</ele>
        <time>2014-07-17T12:22:07Z</time>
      </trkpt>
      <trkpt lat="42.594960" lon="0.663866">
        <ele>2757.9</ele>
        <time>2014-07-17T12:22:19Z</time>
      </trkpt>
      <trkpt lat="42.594954" lon="0.663986">
        <ele>2756.9</ele>
        <time>2014-07-17T12:22:29Z</time>
      </trkpt>
      <trkpt lat="42.594993" lon="0.664100">
        <ele>2755.6</ele>
        <time>2014-07-17T12:22:43Z</time>
      </trkpt>
      <trkpt lat="42.594972" lon="0.664224">
        <ele>2754.0</ele>
        <time>2014-07-17T12:22:56Z</time>
      </trkpt>
      <trkpt lat="42.594984" lon="0.664319">
        <ele>2753.9</ele>
        <time>2014-07-17T12:23:30Z</time>
      </trkpt>
      <trkpt lat="42.595056" lon="0.664379">
        <ele>2750.6</ele>
        <time>2014-07-17T12:23:49Z</time>
      </trkpt>
      <trkpt lat="42.595120" lon="0.664435">
        <ele>2748.0</ele>
        <time>2014-07-17T12:24:37Z</time>
      </trkpt>
      <trkpt lat="42.595210" lon="0.664436">
        <ele>2746.2</ele>
        <time>2014-07-17T12:25:05Z</time>
      </trkpt>
      <trkpt lat="42.595313" lon="0.664496">
        <ele>2747.1</ele>
        <time>2014-07-17T12:25:28Z</time>
      </trkpt>
      <trkpt lat="42.595406" lon="0.664548">
        <ele>2746.1</ele>
        <time>2014-07-17T12:25:39Z</time>
      </trkpt>
      <trkpt lat="42.595463" lon="0.664603">
        <ele>2746.2</ele>
        <time>2014-07-17T12:25:52Z</time>
      </trkpt>
      <trkpt lat="42.595520" lon="0.664712">
        <ele>2746.2</ele>
        <time>2014-07-17T12:26:03Z</time>
      </trkpt>
      <trkpt lat="42.595610" lon="0.664691">
        <ele>2745.2</ele>
        <time>2014-07-17T12:26:13Z</time>
      </trkpt>
      <trkpt lat="42.595673" lon="0.664599">
        <ele>2743.9</ele>
        <time>2014-07-17T12:26:24Z</time>
      </trkpt>
      <trkpt lat="42.595732" lon="0.664655">
        <ele>2741.8</ele>
        <time>2014-07-17T12:26:43Z</time>
      </trkpt>
      <trkpt lat="42.595771" lon="0.664710">
        <ele>2738.7</ele>
        <time>2014-07-17T12:27:03Z</time>
      </trkpt>
      <trkpt lat="42.595838" lon="0.664643">
        <ele>2736.7</ele>
        <time>2014-07-17T12:27:29Z</time>
      </trkpt>
      <trkpt lat="42.595880" lon="0.664727">
        <ele>2732.8</ele>
        <time>2014-07-17T12:28:00Z</time>
      </trkpt>
      <trkpt lat="42.595900" lon="0.664847">
        <ele>2731.7</ele>
        <time>2014-07-17T12:28:10Z</time>
      </trkpt>
      <trkpt lat="42.595928" lon="0.664975">
        <ele>2731.1</ele>
        <time>2014-07-17T12:28:21Z</time>
      </trkpt>
      <trkpt lat="42.595952" lon="0.665087">
        <ele>2730.4</ele>
        <time>2014-07-17T12:28:32Z</time>
      </trkpt>
      <trkpt lat="42.595983" lon="0.665168">
        <ele>2728.4</ele>
        <time>2014-07-17T12:29:00Z</time>
      </trkpt>
      <trkpt lat="42.596025" lon="0.665278">
        <ele>2726.2</ele>
        <time>2014-07-17T12:29:17Z</time>
      </trkpt>
      <trkpt lat="42.596043" lon="0.665396">
        <ele>2724.6</ele>
        <time>2014-07-17T12:29:42Z</time>
      </trkpt>
      <trkpt lat="42.596119" lon="0.665445">
        <ele>2723.8</ele>
        <time>2014-07-17T12:30:05Z</time>
      </trkpt>
      <trkpt lat="42.596198" lon="0.665489">
        <ele>2721.4</ele>
        <time>2014-07-17T12:30:20Z</time>
      </trkpt>
      <trkpt lat="42.596271" lon="0.665511">
        <ele>2717.9</ele>
        <time>2014-07-17T12:30:35Z</time>
      </trkpt>
      <trkpt lat="42.596317" lon="0.665588">
        <ele>2714.9</ele>
        <time>2014-07-17T12:30:48Z</time>
      </trkpt>
      <trkpt lat="42.596358" lon="0.665671">
        <ele>2712.3</ele>
        <time>2014-07-17T12:31:00Z</time>
      </trkpt>
      <trkpt lat="42.596356" lon="0.665788">
        <ele>2710.8</ele>
        <time>2014-07-17T12:31:19Z</time>
      </trkpt>
      <trkpt lat="42.596439" lon="0.665862">
        <ele>2708.7</ele>
        <time>2014-07-17T12:31:34Z</time>
      </trkpt>
      <trkpt lat="42.596472" lon="0.665980">
        <ele>2707.4</ele>
        <time>2014-07-17T12:31:47Z</time>
      </trkpt>
      <trkpt lat="42.596545" lon="0.666046">
        <ele>2706.6</ele>
        <time>2014-07-17T12:31:59Z</time>
      </trkpt>
      <trkpt lat="42.596604" lon="0.666134">
        <ele>2703.6</ele>
        <time>2014-07-17T12:32:17Z</time>
      </trkpt>
      <trkpt lat="42.596626" lon="0.666224">
        <ele>2699.6</ele>
        <time>2014-07-17T12:32:37Z</time>
      </trkpt>
      <trkpt lat="42.596630" lon="0.666339">
        <ele>2697.1</ele>
        <time>2014-07-17T12:32:52Z</time>
      </trkpt>
      <trkpt lat="42.596643" lon="0.666455">
        <ele>2695.6</ele>
        <time>2014-07-17T12:33:04Z</time>
      </trkpt>
      <trkpt lat="42.596663" lon="0.666570">
        <ele>2694.2</ele>
        <time>2014-07-17T12:33:19Z</time>
      </trkpt>
      <trkpt lat="42.596680" lon="0.666694">
        <ele>2693.3</ele>
        <time>2014-07-17T12:33:31Z</time>
      </trkpt>
      <trkpt lat="42.596708" lon="0.666798">
        <ele>2692.3</ele>
        <time>2014-07-17T12:33:43Z</time>
      </trkpt>
      <trkpt lat="42.596744" lon="0.666900">
        <ele>2691.2</ele>
        <time>2014-07-17T12:33:56Z</time>
      </trkpt>
      <trkpt lat="42.596783" lon="0.667013">
        <ele>2688.5</ele>
        <time>2014-07-17T12:34:11Z</time>
      </trkpt>
      <trkpt lat="42.596856" lon="0.667079">
        <ele>2684.4</ele>
        <time>2014-07-17T12:34:54Z</time>
      </trkpt>
      <trkpt lat="42.596888" lon="0.667195">
        <ele>2681.1</ele>
        <time>2014-07-17T12:35:14Z</time>
      </trkpt>
      <trkpt lat="42.596962" lon="0.667249">
        <ele>2680.3</ele>
        <time>2014-07-17T12:35:35Z</time>
      </trkpt>
      <trkpt lat="42.597003" lon="0.667385">
        <ele>2680.5</ele>
        <time>2014-07-17T12:35:48Z</time>
      </trkpt>
      <trkpt lat="42.597059" lon="0.667501">
        <ele>2680.9</ele>
        <time>2014-07-17T12:36:01Z</time>
      </trkpt>
      <trkpt lat="42.597070" lon="0.667604">
        <ele>2680.8</ele>
        <time>2014-07-17T12:36:15Z</time>
      </trkpt>
      <trkpt lat="42.597152" lon="0.667683">
        <ele>2681.1</ele>
        <time>2014-07-17T12:36:28Z</time>
      </trkpt>
      <trkpt lat="42.597209" lon="0.667782">
        <ele>2681.1</ele>
        <time>2014-07-17T12:36:43Z</time>
      </trkpt>
      <trkpt lat="42.597258" lon="0.667882">
        <ele>2680.9</ele>
        <time>2014-07-17T12:36:53Z</time>
      </trkpt>
      <trkpt lat="42.597301" lon="0.667984">
        <ele>2681.1</ele>
        <time>2014-07-17T12:37:14Z</time>
      </trkpt>
      <trkpt lat="42.597287" lon="0.668029">
        <ele>2680.4</ele>
        <time>2014-07-17T12:38:07Z</time>
      </trkpt>
      <trkpt lat="42.597242" lon="0.668130">
        <ele>2678.5</ele>
        <time>2014-07-17T12:38:40Z</time>
      </trkpt>
      <trkpt lat="42.597192" lon="0.668239">
        <ele>2677.2</ele>
        <time>2014-07-17T12:38:56Z</time>
      </trkpt>
      <trkpt lat="42.597195" lon="0.668326">
        <ele>2675.6</ele>
        <time>2014-07-17T12:39:34Z</time>
      </trkpt>
      <trkpt lat="42.597150" lon="0.668369">
        <ele>2672.8</ele>
        <time>2014-07-17T12:40:16Z</time>
      </trkpt>
      <trkpt lat="42.597216" lon="0.668440">
        <ele>2674.0</ele>
        <time>2014-07-17T12:40:45Z</time>
      </trkpt>
      <trkpt lat="42.597275" lon="0.668546">
        <ele>2674.0</ele>
        <time>2014-07-17T12:40:58Z</time>
      </trkpt>
      <trkpt lat="42.597342" lon="0.668646">
        <ele>2673.2</ele>
        <time>2014-07-17T12:41:11Z</time>
      </trkpt>
      <trkpt lat="42.597450" lon="0.668706">
        <ele>2673.7</ele>
        <time>2014-07-17T12:41:23Z</time>
      </trkpt>
      <trkpt lat="42.597538" lon="0.668759">
        <ele>2675.4</ele>
        <time>2014-07-17T12:41:35Z</time>
      </trkpt>
      <trkpt lat="42.597578" lon="0.668891">
        <ele>2677.3</ele>
        <time>2014-07-17T12:41:50Z</time>
      </trkpt>
      <trkpt lat="42.597585" lon="0.668981">
        <ele>2678.6</ele>
        <time>2014-07-17T12:42:05Z</time>
      </trkpt>
      <trkpt lat="42.597544" lon="0.669119">
        <ele>2677.6</ele>
        <time>2014-07-17T12:42:16Z</time>
      </trkpt>
      <trkpt lat="42.597514" lon="0.669255">
        <ele>2676.4</ele>
        <time>2014-07-17T12:42:25Z</time>
      </trkpt>
      <trkpt lat="42.597477" lon="0.669392">
        <ele>2676.0</ele>
        <time>2014-07-17T12:42:34Z</time>
      </trkpt>
      <trkpt lat="42.597442" lon="0.669511">
        <ele>2675.8</ele>
        <time>2014-07-17T12:42:45Z</time>
      </trkpt>
      <trkpt lat="42.597403" lon="0.669637">
        <ele>2675.5</ele>
        <time>2014-07-17T12:42:55Z</time>
      </trkpt>
      <trkpt lat="42.597365" lon="0.669753">
        <ele>2674.8</ele>
        <time>2014-07-17T12:43:04Z</time>
      </trkpt>
      <trkpt lat="42.597343" lon="0.669853">
        <ele>2674.8</ele>
        <time>2014-07-17T12:43:19Z</time>
      </trkpt>
      <trkpt lat="42.597342" lon="0.669970">
        <ele>2673.8</ele>
        <time>2014-07-17T12:43:31Z</time>
      </trkpt>
      <trkpt lat="42.597314" lon="0.670061">
        <ele>2671.3</ele>
        <time>2014-07-17T12:43:46Z</time>
      </trkpt>
      <trkpt lat="42.597301" lon="0.670173">
        <ele>2669.6</ele>
        <time>2014-07-17T12:43:55Z</time>
      </trkpt>
      <trkpt lat="42.597234" lon="0.670162">
        <ele>2667.0</ele>
        <time>2014-07-17T12:44:09Z</time>
      </trkpt>
      <trkpt lat="42.597236" lon="0.670276">
        <ele>2663.6</ele>
        <time>2014-07-17T12:44:32Z</time>
      </trkpt>
      <trkpt lat="42.597231" lon="0.670385">
        <ele>2661.4</ele>
        <time>2014-07-17T12:44:42Z</time>
      </trkpt>
      <trkpt lat="42.597164" lon="0.670457">
        <ele>2659.8</ele>
        <time>2014-07-17T12:44:56Z</time>
      </trkpt>
      <trkpt lat="42.597107" lon="0.670429">
        <ele>2657.1</ele>
        <time>2014-07-17T12:45:15Z</time>
      </trkpt>
      <trkpt lat="42.597085" lon="0.670371">
        <ele>2654.8</ele>
        <time>2014-07-17T12:45:49Z</time>
      </trkpt>
      <trkpt lat="42.596984" lon="0.670420">
        <ele>2652.4</ele>
        <time>2014-07-17T12:46:01Z</time>
      </trkpt>
      <trkpt lat="42.596894" lon="0.670420">
        <ele>2650.2</ele>
        <time>2014-07-17T12:46:11Z</time>
      </trkpt>
      <trkpt lat="42.596844" lon="0.670489">
        <ele>2647.2</ele>
        <time>2014-07-17T12:46:32Z</time>
      </trkpt>
      <trkpt lat="42.596852" lon="0.670619">
        <ele>2646.1</ele>
        <time>2014-07-17T12:46:45Z</time>
      </trkpt>
      <trkpt lat="42.596853" lon="0.670766">
        <ele>2645.0</ele>
        <time>2014-07-17T12:46:58Z</time>
      </trkpt>
      <trkpt lat="42.596835" lon="0.670891">
        <ele>2643.0</ele>
        <time>2014-07-17T12:47:10Z</time>
      </trkpt>
      <trkpt lat="42.596818" lon="0.671005">
        <ele>2639.5</ele>
        <time>2014-07-17T12:47:25Z</time>
      </trkpt>
      <trkpt lat="42.596787" lon="0.671109">
        <ele>2636.0</ele>
        <time>2014-07-17T12:47:36Z</time>
      </trkpt>
      <trkpt lat="42.596767" lon="0.671175">
        <ele>2632.4</ele>
        <time>2014-07-17T12:47:47Z</time>
      </trkpt>
      <trkpt lat="42.596743" lon="0.671274">
        <ele>2629.7</ele>
        <time>2014-07-17T12:47:57Z</time>
      </trkpt>
      <trkpt lat="42.596674" lon="0.671241">
        <ele>2625.6</ele>
        <time>2014-07-17T12:48:14Z</time>
      </trkpt>
      <trkpt lat="42.596640" lon="0.671364">
        <ele>2623.1</ele>
        <time>2014-07-17T12:48:26Z</time>
      </trkpt>
      <trkpt lat="42.596608" lon="0.671475">
        <ele>2620.7</ele>
        <time>2014-07-17T12:48:36Z</time>
      </trkpt>
      <trkpt lat="42.596614" lon="0.671632">
        <ele>2618.1</ele>
        <time>2014-07-17T12:48:50Z</time>
      </trkpt>
      <trkpt lat="42.596611" lon="0.671783">
        <ele>2618.0</ele>
        <time>2014-07-17T12:49:00Z</time>
      </trkpt>
      <trkpt lat="42.596596" lon="0.671903">
        <ele>2617.0</ele>
        <time>2014-07-17T12:49:10Z</time>
      </trkpt>
      <trkpt lat="42.596567" lon="0.672024">
        <ele>2615.3</ele>
        <time>2014-07-17T12:49:19Z</time>
      </trkpt>
      <trkpt lat="42.596534" lon="0.672134">
        <ele>2613.9</ele>
        <time>2014-07-17T12:49:28Z</time>
      </trkpt>
      <trkpt lat="42.596538" lon="0.672255">
        <ele>2611.6</ele>
        <time>2014-07-17T12:49:39Z</time>
      </trkpt>
      <trkpt lat="42.596475" lon="0.672335">
        <ele>2609.3</ele>
        <time>2014-07-17T12:49:50Z</time>
      </trkpt>
      <trkpt lat="42.596418" lon="0.672407">
        <ele>2607.4</ele>
        <time>2014-07-17T12:50:00Z</time>
      </trkpt>
      <trkpt lat="42.596397" lon="0.672518">
        <ele>2603.9</ele>
        <time>2014-07-17T12:50:14Z</time>
      </trkpt>
      <trkpt lat="42.596358" lon="0.672627">
        <ele>2599.8</ele>
        <time>2014-07-17T12:50:27Z</time>
      </trkpt>
      <trkpt lat="42.596299" lon="0.672719">
        <ele>2595.5</ele>
        <time>2014-07-17T12:50:41Z</time>
      </trkpt>
      <trkpt lat="42.596241" lon="0.672825">
        <ele>2591.8</ele>
        <time>2014-07-17T12:50:54Z</time>
      </trkpt>
      <trkpt lat="42.596227" lon="0.672946">
        <ele>2589.9</ele>
        <time>2014-07-17T12:51:06Z</time>
      </trkpt>
      <trkpt lat="42.596206" lon="0.673092">
        <ele>2588.3</ele>
        <time>2014-07-17T12:51:19Z</time>
      </trkpt>
      <trkpt lat="42.596180" lon="0.673227">
        <ele>2587.1</ele>
        <time>2014-07-17T12:51:35Z</time>
      </trkpt>
      <trkpt lat="42.596203" lon="0.673377">
        <ele>2585.1</ele>
        <time>2014-07-17T12:51:49Z</time>
      </trkpt>
      <trkpt lat="42.596205" lon="0.673512">
        <ele>2583.9</ele>
        <time>2014-07-17T12:51:58Z</time>
      </trkpt>
      <trkpt lat="42.596178" lon="0.673642">
        <ele>2582.5</ele>
        <time>2014-07-17T12:52:08Z</time>
      </trkpt>
      <trkpt lat="42.596167" lon="0.673766">
        <ele>2581.8</ele>
        <time>2014-07-17T12:52:17Z</time>
      </trkpt>
      <trkpt lat="42.596143" lon="0.673890">
        <ele>2581.0</ele>
        <time>2014-07-17T12:52:26Z</time>
      </trkpt>
      <trkpt lat="42.596097" lon="0.673998">
        <ele>2579.1</ele>
        <time>2014-07-17T12:52:42Z</time>
      </trkpt>
      <trkpt lat="42.596044" lon="0.674055">
        <ele>2577.8</ele>
        <time>2014-07-17T12:53:01Z</time>
      </trkpt>
      <trkpt lat="42.596012" lon="0.674147">
        <ele>2576.7</ele>
        <time>2014-07-17T12:53:09Z</time>
      </trkpt>
      <trkpt lat="42.595966" lon="0.674251">
        <ele>2574.2</ele>
        <time>2014-07-17T12:53:18Z</time>
      </trkpt>
      <trkpt lat="42.595942" lon="0.674289">
        <ele>2573.5</ele>
        <time>2014-07-17T12:56:23Z</time>
      </trkpt>
      <trkpt lat="42.595980" lon="0.674273">
        <ele>2573.3</ele>
        <time>2014-07-17T12:57:13Z</time>
      </trkpt>
      <trkpt lat="42.595917" lon="0.674306">
        <ele>2573.6</ele>
        <time>2014-07-17T12:58:51Z</time>
      </trkpt>
      <trkpt lat="42.595949" lon="0.674424">
        <ele>2574.0</ele>
        <time>2014-07-17T12:59:05Z</time>
      </trkpt>
      <trkpt lat="42.595963" lon="0.674515">
        <ele>2573.9</ele>
        <time>2014-07-17T12:59:26Z</time>
      </trkpt>
      <trkpt lat="42.595956" lon="0.674639">
        <ele>2573.7</ele>
        <time>2014-07-17T12:59:37Z</time>
      </trkpt>
      <trkpt lat="42.595973" lon="0.674750">
        <ele>2573.8</ele>
        <time>2014-07-17T12:59:48Z</time>
      </trkpt>
      <trkpt lat="42.595930" lon="0.674896">
        <ele>2574.3</ele>
        <time>2014-07-17T12:59:59Z</time>
      </trkpt>
      <trkpt lat="42.595907" lon="0.675013">
        <ele>2574.8</ele>
        <time>2014-07-17T13:00:09Z</time>
      </trkpt>
      <trkpt lat="42.595990" lon="0.675057">
        <ele>2574.4</ele>
        <time>2014-07-17T13:00:20Z</time>
      </trkpt>
      <trkpt lat="42.596045" lon="0.675100">
        <ele>2573.9</ele>
        <time>2014-07-17T13:00:36Z</time>
      </trkpt>
      <trkpt lat="42.596141" lon="0.675164">
        <ele>2572.9</ele>
        <time>2014-07-17T13:00:49Z</time>
      </trkpt>
      <trkpt lat="42.596224" lon="0.675187">
        <ele>2570.4</ele>
        <time>2014-07-17T13:01:02Z</time>
      </trkpt>
      <trkpt lat="42.596305" lon="0.675206">
        <ele>2567.1</ele>
        <time>2014-07-17T13:01:16Z</time>
      </trkpt>
      <trkpt lat="42.596376" lon="0.675254">
        <ele>2564.2</ele>
        <time>2014-07-17T13:01:29Z</time>
      </trkpt>
      <trkpt lat="42.596447" lon="0.675262">
        <ele>2561.6</ele>
        <time>2014-07-17T13:01:44Z</time>
      </trkpt>
      <trkpt lat="42.596489" lon="0.675313">
        <ele>2558.5</ele>
        <time>2014-07-17T13:02:08Z</time>
      </trkpt>
      <trkpt lat="42.596518" lon="0.675430">
        <ele>2557.6</ele>
        <time>2014-07-17T13:02:23Z</time>
      </trkpt>
      <trkpt lat="42.596579" lon="0.675517">
        <ele>2555.3</ele>
        <time>2014-07-17T13:02:46Z</time>
      </trkpt>
      <trkpt lat="42.596654" lon="0.675585">
        <ele>2552.2</ele>
        <time>2014-07-17T13:03:01Z</time>
      </trkpt>
      <trkpt lat="42.596729" lon="0.675636">
        <ele>2549.2</ele>
        <time>2014-07-17T13:03:16Z</time>
      </trkpt>
      <trkpt lat="42.596818" lon="0.675630">
        <ele>2545.1</ele>
        <time>2014-07-17T13:03:37Z</time>
      </trkpt>
      <trkpt lat="42.596867" lon="0.675726">
        <ele>2542.2</ele>
        <time>2014-07-17T13:03:54Z</time>
      </trkpt>
      <trkpt lat="42.596962" lon="0.675783">
        <ele>2539.2</ele>
        <time>2014-07-17T13:04:11Z</time>
      </trkpt>
      <trkpt lat="42.597047" lon="0.675885">
        <ele>2536.2</ele>
        <time>2014-07-17T13:04:26Z</time>
      </trkpt>
      <trkpt lat="42.597109" lon="0.675976">
        <ele>2534.4</ele>
        <time>2014-07-17T13:04:36Z</time>
      </trkpt>
      <trkpt lat="42.597196" lon="0.676045">
        <ele>2532.1</ele>
        <time>2014-07-17T13:04:50Z</time>
      </trkpt>
      <trkpt lat="42.597242" lon="0.676165">
        <ele>2530.7</ele>
        <time>2014-07-17T13:05:02Z</time>
      </trkpt>
      <trkpt lat="42.597308" lon="0.676272">
        <ele>2529.2</ele>
        <time>2014-07-17T13:05:12Z</time>
      </trkpt>
      <trkpt lat="42.597374" lon="0.676384">
        <ele>2527.8</ele>
        <time>2014-07-17T13:05:21Z</time>
      </trkpt>
      <trkpt lat="42.597458" lon="0.676436">
        <ele>2526.5</ele>
        <time>2014-07-17T13:05:31Z</time>
      </trkpt>
      <trkpt lat="42.597517" lon="0.676514">
        <ele>2524.6</ele>
        <time>2014-07-17T13:05:46Z</time>
      </trkpt>
      <trkpt lat="42.597596" lon="0.676620">
        <ele>2524.0</ele>
        <time>2014-07-17T13:06:00Z</time>
      </trkpt>
      <trkpt lat="42.597672" lon="0.676715">
        <ele>2524.7</ele>
        <time>2014-07-17T13:06:13Z</time>
      </trkpt>
      <trkpt lat="42.597722" lon="0.676815">
        <ele>2524.4</ele>
        <time>2014-07-17T13:06:23Z</time>
      </trkpt>
      <trkpt lat="42.597775" lon="0.676927">
        <ele>2524.3</ele>
        <time>2014-07-17T13:06:37Z</time>
      </trkpt>
      <trkpt lat="42.597826" lon="0.677022">
        <ele>2523.4</ele>
        <time>2014-07-17T13:07:01Z</time>
      </trkpt>
      <trkpt lat="42.597813" lon="0.677156">
        <ele>2523.1</ele>
        <time>2014-07-17T13:07:13Z</time>
      </trkpt>
      <trkpt lat="42.597794" lon="0.677285">
        <ele>2523.2</ele>
        <time>2014-07-17T13:07:23Z</time>
      </trkpt>
      <trkpt lat="42.597821" lon="0.677401">
        <ele>2523.6</ele>
        <time>2014-07-17T13:07:33Z</time>
      </trkpt>
      <trkpt lat="42.597850" lon="0.677523">
        <ele>2523.1</ele>
        <time>2014-07-17T13:07:43Z</time>
      </trkpt>
      <trkpt lat="42.597858" lon="0.677651">
        <ele>2522.7</ele>
        <time>2014-07-17T13:07:52Z</time>
      </trkpt>
      <trkpt lat="42.597887" lon="0.677793">
        <ele>2522.3</ele>
        <time>2014-07-17T13:08:02Z</time>
      </trkpt>
      <trkpt lat="42.597902" lon="0.677922">
        <ele>2521.9</ele>
        <time>2014-07-17T13:08:12Z</time>
      </trkpt>
      <trkpt lat="42.597944" lon="0.678040">
        <ele>2522.8</ele>
        <time>2014-07-17T13:08:26Z</time>
      </trkpt>
      <trkpt lat="42.597928" lon="0.678179">
        <ele>2520.9</ele>
        <time>2014-07-17T13:08:39Z</time>
      </trkpt>
      <trkpt lat="42.597895" lon="0.678287">
        <ele>2519.6</ele>
        <time>2014-07-17T13:08:55Z</time>
      </trkpt>
      <trkpt lat="42.597936" lon="0.678379">
        <ele>2518.4</ele>
        <time>2014-07-17T13:09:08Z</time>
      </trkpt>
      <trkpt lat="42.597987" lon="0.678481">
        <ele>2517.1</ele>
        <time>2014-07-17T13:09:25Z</time>
      </trkpt>
      <trkpt lat="42.598070" lon="0.678545">
        <ele>2515.6</ele>
        <time>2014-07-17T13:09:43Z</time>
      </trkpt>
      <trkpt lat="42.598062" lon="0.678656">
        <ele>2514.5</ele>
        <time>2014-07-17T13:09:58Z</time>
      </trkpt>
      <trkpt lat="42.598034" lon="0.678750">
        <ele>2513.9</ele>
        <time>2014-07-17T13:10:11Z</time>
      </trkpt>
      <trkpt lat="42.598046" lon="0.678810">
        <ele>2512.3</ele>
        <time>2014-07-17T13:10:33Z</time>
      </trkpt>
      <trkpt lat="42.598030" lon="0.678934">
        <ele>2511.3</ele>
        <time>2014-07-17T13:10:57Z</time>
      </trkpt>
      <trkpt lat="42.598073" lon="0.679057">
        <ele>2509.8</ele>
        <time>2014-07-17T13:11:09Z</time>
      </trkpt>
      <trkpt lat="42.598098" lon="0.679151">
        <ele>2508.6</ele>
        <time>2014-07-17T13:11:20Z</time>
      </trkpt>
      <trkpt lat="42.598126" lon="0.679266">
        <ele>2505.3</ele>
        <time>2014-07-17T13:11:34Z</time>
      </trkpt>
      <trkpt lat="42.598184" lon="0.679363">
        <ele>2502.9</ele>
        <time>2014-07-17T13:11:44Z</time>
      </trkpt>
      <trkpt lat="42.598197" lon="0.679462">
        <ele>2499.7</ele>
        <time>2014-07-17T13:12:05Z</time>
      </trkpt>
      <trkpt lat="42.598183" lon="0.679608">
        <ele>2496.6</ele>
        <time>2014-07-17T13:12:17Z</time>
      </trkpt>
      <trkpt lat="42.598173" lon="0.679719">
        <ele>2494.2</ele>
        <time>2014-07-17T13:12:29Z</time>
      </trkpt>
      <trkpt lat="42.598128" lon="0.679769">
        <ele>2491.2</ele>
        <time>2014-07-17T13:12:44Z</time>
      </trkpt>
      <trkpt lat="42.598097" lon="0.679866">
        <ele>2488.5</ele>
        <time>2014-07-17T13:12:58Z</time>
      </trkpt>
      <trkpt lat="42.598090" lon="0.679994">
        <ele>2485.3</ele>
        <time>2014-07-17T13:13:14Z</time>
      </trkpt>
      <trkpt lat="42.598051" lon="0.680089">
        <ele>2482.3</ele>
        <time>2014-07-17T13:13:30Z</time>
      </trkpt>
      <trkpt lat="42.598028" lon="0.680218">
        <ele>2479.2</ele>
        <time>2014-07-17T13:13:43Z</time>
      </trkpt>
      <trkpt lat="42.598082" lon="0.680312">
        <ele>2475.7</ele>
        <time>2014-07-17T13:14:03Z</time>
      </trkpt>
      <trkpt lat="42.598134" lon="0.680399">
        <ele>2473.5</ele>
        <time>2014-07-17T13:14:19Z</time>
      </trkpt>
      <trkpt lat="42.598173" lon="0.680502">
        <ele>2470.9</ele>
        <time>2014-07-17T13:14:32Z</time>
      </trkpt>
      <trkpt lat="42.598219" lon="0.680638">
        <ele>2468.1</ele>
        <time>2014-07-17T13:14:52Z</time>
      </trkpt>
      <trkpt lat="42.598166" lon="0.680705">
        <ele>2464.8</ele>
        <time>2014-07-17T13:15:07Z</time>
      </trkpt>
      <trkpt lat="42.598158" lon="0.680831">
        <ele>2461.7</ele>
        <time>2014-07-17T13:15:23Z</time>
      </trkpt>
      <trkpt lat="42.598225" lon="0.680926">
        <ele>2459.5</ele>
        <time>2014-07-17T13:15:47Z</time>
      </trkpt>
      <trkpt lat="42.598260" lon="0.681002">
        <ele>2456.5</ele>
        <time>2014-07-17T13:16:05Z</time>
      </trkpt>
      <trkpt lat="42.598299" lon="0.681110">
        <ele>2454.9</ele>
        <time>2014-07-17T13:16:19Z</time>
      </trkpt>
      <trkpt lat="42.598275" lon="0.681213">
        <ele>2451.0</ele>
        <time>2014-07-17T13:16:38Z</time>
      </trkpt>
      <trkpt lat="42.598282" lon="0.681286">
        <ele>2448.5</ele>
        <time>2014-07-17T13:16:56Z</time>
      </trkpt>
      <trkpt lat="42.598343" lon="0.681390">
        <ele>2446.9</ele>
        <time>2014-07-17T13:17:11Z</time>
      </trkpt>
      <trkpt lat="42.598429" lon="0.681423">
        <ele>2447.0</ele>
        <time>2014-07-17T13:17:26Z</time>
      </trkpt>
      <trkpt lat="42.598527" lon="0.681455">
        <ele>2445.8</ele>
        <time>2014-07-17T13:17:45Z</time>
      </trkpt>
      <trkpt lat="42.598538" lon="0.681575">
        <ele>2442.2</ele>
        <time>2014-07-17T13:18:02Z</time>
      </trkpt>
      <trkpt lat="42.598470" lon="0.681649">
        <ele>2439.9</ele>
        <time>2014-07-17T13:18:14Z</time>
      </trkpt>
      <trkpt lat="42.598390" lon="0.681727">
        <ele>2436.3</ele>
        <time>2014-07-17T13:18:28Z</time>
      </trkpt>
      <trkpt lat="42.598300" lon="0.681718">
        <ele>2433.7</ele>
        <time>2014-07-17T13:18:43Z</time>
      </trkpt>
      <trkpt lat="42.598228" lon="0.681754">
        <ele>2429.9</ele>
        <time>2014-07-17T13:19:05Z</time>
      </trkpt>
      <trkpt lat="42.598156" lon="0.681810">
        <ele>2426.5</ele>
        <time>2014-07-17T13:19:21Z</time>
      </trkpt>
      <trkpt lat="42.598124" lon="0.681883">
        <ele>2422.5</ele>
        <time>2014-07-17T13:19:37Z</time>
      </trkpt>
      <trkpt lat="42.598075" lon="0.681971">
        <ele>2418.7</ele>
        <time>2014-07-17T13:19:54Z</time>
      </trkpt>
      <trkpt lat="42.597981" lon="0.682052">
        <ele>2416.1</ele>
        <time>2014-07-17T13:20:07Z</time>
      </trkpt>
      <trkpt lat="42.597884" lon="0.682056">
        <ele>2414.1</ele>
        <time>2014-07-17T13:20:19Z</time>
      </trkpt>
      <trkpt lat="42.597816" lon="0.682167">
        <ele>2411.9</ele>
        <time>2014-07-17T13:20:32Z</time>
      </trkpt>
      <trkpt lat="42.597796" lon="0.682170">
        <ele>2409.9</ele>
        <time>2014-07-17T13:21:01Z</time>
      </trkpt>
      <trkpt lat="42.597757" lon="0.682162">
        <ele>2410.0</ele>
        <time>2014-07-17T13:21:19Z</time>
      </trkpt>
      <trkpt lat="42.597758" lon="0.682132">
        <ele>2410.2</ele>
        <time>2014-07-17T13:22:04Z</time>
      </trkpt>
      <trkpt lat="42.597694" lon="0.682213">
        <ele>2410.4</ele>
        <time>2014-07-17T13:22:23Z</time>
      </trkpt>
      <trkpt lat="42.597644" lon="0.682159">
        <ele>2408.5</ele>
        <time>2014-07-17T13:22:42Z</time>
      </trkpt>
      <trkpt lat="42.597569" lon="0.682209">
        <ele>2406.7</ele>
        <time>2014-07-17T13:23:10Z</time>
      </trkpt>
      <trkpt lat="42.597472" lon="0.682207">
        <ele>2406.4</ele>
        <time>2014-07-17T13:23:21Z</time>
      </trkpt>
      <trkpt lat="42.597369" lon="0.682182">
        <ele>2406.1</ele>
        <time>2014-07-17T13:23:32Z</time>
      </trkpt>
      <trkpt lat="42.597307" lon="0.682078">
        <ele>2404.1</ele>
        <time>2014-07-17T13:23:43Z</time>
      </trkpt>
      <trkpt lat="42.597255" lon="0.682013">
        <ele>2401.9</ele>
        <time>2014-07-17T13:23:55Z</time>
      </trkpt>
      <trkpt lat="42.597145" lon="0.682015">
        <ele>2399.9</ele>
        <time>2014-07-17T13:24:07Z</time>
      </trkpt>
      <trkpt lat="42.597045" lon="0.682026">
        <ele>2398.9</ele>
        <time>2014-07-17T13:24:17Z</time>
      </trkpt>
      <trkpt lat="42.596948" lon="0.682012">
        <ele>2397.6</ele>
        <time>2014-07-17T13:24:29Z</time>
      </trkpt>
      <trkpt lat="42.596853" lon="0.681985">
        <ele>2397.3</ele>
        <time>2014-07-17T13:24:40Z</time>
      </trkpt>
      <trkpt lat="42.596757" lon="0.681994">
        <ele>2397.1</ele>
        <time>2014-07-17T13:24:49Z</time>
      </trkpt>
      <trkpt lat="42.596671" lon="0.682021">
        <ele>2397.1</ele>
        <time>2014-07-17T13:24:58Z</time>
      </trkpt>
      <trkpt lat="42.596592" lon="0.682072">
        <ele>2396.8</ele>
        <time>2014-07-17T13:25:08Z</time>
      </trkpt>
      <trkpt lat="42.596498" lon="0.682114">
        <ele>2395.0</ele>
        <time>2014-07-17T13:25:18Z</time>
      </trkpt>
      <trkpt lat="42.596404" lon="0.682086">
        <ele>2394.2</ele>
        <time>2014-07-17T13:25:27Z</time>
      </trkpt>
      <trkpt lat="42.596315" lon="0.682133">
        <ele>2393.9</ele>
        <time>2014-07-17T13:25:37Z</time>
      </trkpt>
      <trkpt lat="42.596230" lon="0.682152">
        <ele>2393.4</ele>
        <time>2014-07-17T13:25:46Z</time>
      </trkpt>
      <trkpt lat="42.596133" lon="0.682161">
        <ele>2393.1</ele>
        <time>2014-07-17T13:26:01Z</time>
      </trkpt>
      <trkpt lat="42.596041" lon="0.682180">
        <ele>2391.4</ele>
        <time>2014-07-17T13:26:19Z</time>
      </trkpt>
      <trkpt lat="42.595939" lon="0.682162">
        <ele>2389.0</ele>
        <time>2014-07-17T13:26:36Z</time>
      </trkpt>
      <trkpt lat="42.595839" lon="0.682164">
        <ele>2387.6</ele>
        <time>2014-07-17T13:26:49Z</time>
      </trkpt>
      <trkpt lat="42.595747" lon="0.682186">
        <ele>2387.1</ele>
        <time>2014-07-17T13:27:00Z</time>
      </trkpt>
      <trkpt lat="42.595661" lon="0.682226">
        <ele>2386.1</ele>
        <time>2014-07-17T13:27:10Z</time>
      </trkpt>
      <trkpt lat="42.595603" lon="0.682210">
        <ele>2384.6</ele>
        <time>2014-07-17T13:27:38Z</time>
      </trkpt>
      <trkpt lat="42.595574" lon="0.682310">
        <ele>2384.6</ele>
        <time>2014-07-17T13:28:07Z</time>
      </trkpt>
      <trkpt lat="42.595462" lon="0.682316">
        <ele>2384.6</ele>
        <time>2014-07-17T13:28:21Z</time>
      </trkpt>
      <trkpt lat="42.595366" lon="0.682320">
        <ele>2384.5</ele>
        <time>2014-07-17T13:28:33Z</time>
      </trkpt>
      <trkpt lat="42.595272" lon="0.682297">
        <ele>2384.3</ele>
        <time>2014-07-17T13:28:44Z</time>
      </trkpt>
      <trkpt lat="42.595181" lon="0.682291">
        <ele>2383.0</ele>
        <time>2014-07-17T13:28:55Z</time>
      </trkpt>
      <trkpt lat="42.595077" lon="0.682252">
        <ele>2382.1</ele>
        <time>2014-07-17T13:29:06Z</time>
      </trkpt>
      <trkpt lat="42.594986" lon="0.682233">
        <ele>2381.0</ele>
        <time>2014-07-17T13:29:16Z</time>
      </trkpt>
      <trkpt lat="42.594879" lon="0.682211">
        <ele>2380.1</ele>
        <time>2014-07-17T13:29:28Z</time>
      </trkpt>
      <trkpt lat="42.594786" lon="0.682166">
        <ele>2378.6</ele>
        <time>2014-07-17T13:29:38Z</time>
      </trkpt>
      <trkpt lat="42.594703" lon="0.682138">
        <ele>2377.4</ele>
        <time>2014-07-17T13:29:47Z</time>
      </trkpt>
      <trkpt lat="42.594630" lon="0.682192">
        <ele>2375.8</ele>
        <time>2014-07-17T13:29:59Z</time>
      </trkpt>
      <trkpt lat="42.594539" lon="0.682236">
        <ele>2373.7</ele>
        <time>2014-07-17T13:30:10Z</time>
      </trkpt>
      <trkpt lat="42.594446" lon="0.682269">
        <ele>2372.2</ele>
        <time>2014-07-17T13:30:22Z</time>
      </trkpt>
      <trkpt lat="42.594341" lon="0.682257">
        <ele>2370.8</ele>
        <time>2014-07-17T13:30:33Z</time>
      </trkpt>
      <trkpt lat="42.594251" lon="0.682200">
        <ele>2369.7</ele>
        <time>2014-07-17T13:30:43Z</time>
      </trkpt>
      <trkpt lat="42.594153" lon="0.682148">
        <ele>2368.5</ele>
        <time>2014-07-17T13:30:54Z</time>
      </trkpt>
      <trkpt lat="42.594084" lon="0.682058">
        <ele>2366.8</ele>
        <time>2014-07-17T13:31:07Z</time>
      </trkpt>
      <trkpt lat="42.594004" lon="0.681976">
        <ele>2364.5</ele>
        <time>2014-07-17T13:31:21Z</time>
      </trkpt>
      <trkpt lat="42.593904" lon="0.681951">
        <ele>2362.3</ele>
        <time>2014-07-17T13:31:35Z</time>
      </trkpt>
      <trkpt lat="42.593803" lon="0.681952">
        <ele>2359.0</ele>
        <time>2014-07-17T13:31:49Z</time>
      </trkpt>
      <trkpt lat="42.593723" lon="0.681959">
        <ele>2356.8</ele>
        <time>2014-07-17T13:32:01Z</time>
      </trkpt>
      <trkpt lat="42.593633" lon="0.681968">
        <ele>2353.5</ele>
        <time>2014-07-17T13:32:15Z</time>
      </trkpt>
      <trkpt lat="42.593557" lon="0.681874">
        <ele>2350.1</ele>
        <time>2014-07-17T13:32:32Z</time>
      </trkpt>
      <trkpt lat="42.593473" lon="0.681802">
        <ele>2348.4</ele>
        <time>2014-07-17T13:32:42Z</time>
      </trkpt>
      <trkpt lat="42.593398" lon="0.681769">
        <ele>2346.8</ele>
        <time>2014-07-17T13:32:52Z</time>
      </trkpt>
      <trkpt lat="42.593324" lon="0.681676">
        <ele>2346.1</ele>
        <time>2014-07-17T13:33:04Z</time>
      </trkpt>
      <trkpt lat="42.593245" lon="0.681606">
        <ele>2344.1</ele>
        <time>2014-07-17T13:33:17Z</time>
      </trkpt>
      <trkpt lat="42.593145" lon="0.681560">
        <ele>2342.5</ele>
        <time>2014-07-17T13:33:31Z</time>
      </trkpt>
      <trkpt lat="42.593070" lon="0.681485">
        <ele>2339.5</ele>
        <time>2014-07-17T13:33:47Z</time>
      </trkpt>
      <trkpt lat="42.593074" lon="0.681406">
        <ele>2337.4</ele>
        <time>2014-07-17T13:34:02Z</time>
      </trkpt>
      <trkpt lat="42.592998" lon="0.681305">
        <ele>2336.9</ele>
        <time>2014-07-17T13:34:14Z</time>
      </trkpt>
      <trkpt lat="42.592911" lon="0.681244">
        <ele>2336.4</ele>
        <time>2014-07-17T13:34:27Z</time>
      </trkpt>
      <trkpt lat="42.592814" lon="0.681214">
        <ele>2337.0</ele>
        <time>2014-07-17T13:34:39Z</time>
      </trkpt>
      <trkpt lat="42.592715" lon="0.681209">
        <ele>2337.7</ele>
        <time>2014-07-17T13:34:52Z</time>
      </trkpt>
      <trkpt lat="42.592616" lon="0.681218">
        <ele>2337.5</ele>
        <time>2014-07-17T13:35:05Z</time>
      </trkpt>
      <trkpt lat="42.592548" lon="0.681137">
        <ele>2335.6</ele>
        <time>2014-07-17T13:35:18Z</time>
      </trkpt>
      <trkpt lat="42.592511" lon="0.681039">
        <ele>2333.8</ele>
        <time>2014-07-17T13:35:28Z</time>
      </trkpt>
      <trkpt lat="42.592470" lon="0.680964">
        <ele>2332.6</ele>
        <time>2014-07-17T13:35:45Z</time>
      </trkpt>
      <trkpt lat="42.592390" lon="0.681023">
        <ele>2332.7</ele>
        <time>2014-07-17T13:36:13Z</time>
      </trkpt>
      <trkpt lat="42.592302" lon="0.681088">
        <ele>2332.7</ele>
        <time>2014-07-17T13:37:38Z</time>
      </trkpt>
      <trkpt lat="42.592266" lon="0.681169">
        <ele>2333.5</ele>
        <time>2014-07-17T13:57:31Z</time>
      </trkpt>
      <trkpt lat="42.592175" lon="0.681184">
        <ele>2334.8</ele>
        <time>2014-07-17T13:57:51Z</time>
      </trkpt>
      <trkpt lat="42.592109" lon="0.681112">
        <ele>2333.9</ele>
        <time>2014-07-17T13:58:11Z</time>
      </trkpt>
      <trkpt lat="42.592000" lon="0.681128">
        <ele>2334.2</ele>
        <time>2014-07-17T13:58:27Z</time>
      </trkpt>
      <trkpt lat="42.591898" lon="0.681111">
        <ele>2334.9</ele>
        <time>2014-07-17T13:58:41Z</time>
      </trkpt>
      <trkpt lat="42.591806" lon="0.681113">
        <ele>2335.2</ele>
        <time>2014-07-17T13:58:53Z</time>
      </trkpt>
      <trkpt lat="42.591684" lon="0.681132">
        <ele>2336.7</ele>
        <time>2014-07-17T13:59:08Z</time>
      </trkpt>
      <trkpt lat="42.591584" lon="0.681100">
        <ele>2337.0</ele>
        <time>2014-07-17T13:59:19Z</time>
      </trkpt>
      <trkpt lat="42.591486" lon="0.681068">
        <ele>2336.9</ele>
        <time>2014-07-17T13:59:31Z</time>
      </trkpt>
      <trkpt lat="42.591391" lon="0.681064">
        <ele>2337.5</ele>
        <time>2014-07-17T13:59:43Z</time>
      </trkpt>
      <trkpt lat="42.591277" lon="0.681062">
        <ele>2337.9</ele>
        <time>2014-07-17T13:59:57Z</time>
      </trkpt>
      <trkpt lat="42.591236" lon="0.681037">
        <ele>2339.9</ele>
        <time>2014-07-17T14:00:14Z</time>
      </trkpt>
      <trkpt lat="42.591125" lon="0.681025">
        <ele>2341.7</ele>
        <time>2014-07-17T14:00:30Z</time>
      </trkpt>
      <trkpt lat="42.591019" lon="0.681048">
        <ele>2341.4</ele>
        <time>2014-07-17T14:00:41Z</time>
      </trkpt>
      <trkpt lat="42.590916" lon="0.681076">
        <ele>2340.1</ele>
        <time>2014-07-17T14:00:54Z</time>
      </trkpt>
      <trkpt lat="42.590845" lon="0.681151">
        <ele>2340.1</ele>
        <time>2014-07-17T14:01:08Z</time>
      </trkpt>
      <trkpt lat="42.590767" lon="0.681239">
        <ele>2341.6</ele>
        <time>2014-07-17T14:01:22Z</time>
      </trkpt>
      <trkpt lat="42.590681" lon="0.681292">
        <ele>2342.1</ele>
        <time>2014-07-17T14:01:33Z</time>
      </trkpt>
      <trkpt lat="42.590589" lon="0.681357">
        <ele>2342.1</ele>
        <time>2014-07-17T14:01:46Z</time>
      </trkpt>
      <trkpt lat="42.590498" lon="0.681439">
        <ele>2343.4</ele>
        <time>2014-07-17T14:02:01Z</time>
      </trkpt>
      <trkpt lat="42.590408" lon="0.681477">
        <ele>2345.1</ele>
        <time>2014-07-17T14:02:16Z</time>
      </trkpt>
      <trkpt lat="42.590295" lon="0.681510">
        <ele>2347.7</ele>
        <time>2014-07-17T14:02:33Z</time>
      </trkpt>
      <trkpt lat="42.590198" lon="0.681478">
        <ele>2349.5</ele>
        <time>2014-07-17T14:02:47Z</time>
      </trkpt>
      <trkpt lat="42.590103" lon="0.681439">
        <ele>2351.9</ele>
        <time>2014-07-17T14:03:02Z</time>
      </trkpt>
      <trkpt lat="42.590004" lon="0.681478">
        <ele>2354.9</ele>
        <time>2014-07-17T14:03:21Z</time>
      </trkpt>
      <trkpt lat="42.589901" lon="0.681510">
        <ele>2355.8</ele>
        <time>2014-07-17T14:03:35Z</time>
      </trkpt>
      <trkpt lat="42.589803" lon="0.681480">
        <ele>2355.0</ele>
        <time>2014-07-17T14:03:48Z</time>
      </trkpt>
      <trkpt lat="42.589704" lon="0.681535">
        <ele>2353.4</ele>
        <time>2014-07-17T14:04:01Z</time>
      </trkpt>
      <trkpt lat="42.589617" lon="0.681605">
        <ele>2351.8</ele>
        <time>2014-07-17T14:04:12Z</time>
      </trkpt>
      <trkpt lat="42.589520" lon="0.681574">
        <ele>2351.2</ele>
        <time>2014-07-17T14:04:23Z</time>
      </trkpt>
      <trkpt lat="42.589437" lon="0.681526">
        <ele>2350.9</ele>
        <time>2014-07-17T14:04:35Z</time>
      </trkpt>
      <trkpt lat="42.589422" lon="0.681469">
        <ele>2350.3</ele>
        <time>2014-07-17T14:05:26Z</time>
      </trkpt>
      <trkpt lat="42.589406" lon="0.681323">
        <ele>2347.8</ele>
        <time>2014-07-17T14:05:43Z</time>
      </trkpt>
      <trkpt lat="42.589398" lon="0.681228">
        <ele>2345.8</ele>
        <time>2014-07-17T14:05:58Z</time>
      </trkpt>
      <trkpt lat="42.589277" lon="0.681210">
        <ele>2338.7</ele>
        <time>2014-07-17T14:06:52Z</time>
      </trkpt>
      <trkpt lat="42.589227" lon="0.681124">
        <ele>2335.5</ele>
        <time>2014-07-17T14:07:08Z</time>
      </trkpt>
      <trkpt lat="42.589163" lon="0.681022">
        <ele>2333.1</ele>
        <time>2014-07-17T14:07:20Z</time>
      </trkpt>
      <trkpt lat="42.589149" lon="0.680909">
        <ele>2329.8</ele>
        <time>2014-07-17T14:07:35Z</time>
      </trkpt>
      <trkpt lat="42.589066" lon="0.680870">
        <ele>2327.1</ele>
        <time>2014-07-17T14:07:52Z</time>
      </trkpt>
      <trkpt lat="42.588993" lon="0.680812">
        <ele>2325.1</ele>
        <time>2014-07-17T14:08:09Z</time>
      </trkpt>
      <trkpt lat="42.588906" lon="0.680764">
        <ele>2322.9</ele>
        <time>2014-07-17T14:08:20Z</time>
      </trkpt>
      <trkpt lat="42.588848" lon="0.680634">
        <ele>2321.7</ele>
        <time>2014-07-17T14:08:34Z</time>
      </trkpt>
      <trkpt lat="42.588794" lon="0.680531">
        <ele>2320.0</ele>
        <time>2014-07-17T14:08:49Z</time>
      </trkpt>
      <trkpt lat="42.588770" lon="0.680453">
        <ele>2320.0</ele>
        <time>2014-07-17T14:09:17Z</time>
      </trkpt>
      <trkpt lat="42.588689" lon="0.680362">
        <ele>2317.2</ele>
        <time>2014-07-17T14:09:31Z</time>
      </trkpt>
      <trkpt lat="42.588639" lon="0.680256">
        <ele>2315.0</ele>
        <time>2014-07-17T14:09:43Z</time>
      </trkpt>
      <trkpt lat="42.588560" lon="0.680140">
        <ele>2312.5</ele>
        <time>2014-07-17T14:09:56Z</time>
      </trkpt>
      <trkpt lat="42.588493" lon="0.680033">
        <ele>2309.7</ele>
        <time>2014-07-17T14:10:09Z</time>
      </trkpt>
      <trkpt lat="42.588447" lon="0.679929">
        <ele>2307.4</ele>
        <time>2014-07-17T14:10:20Z</time>
      </trkpt>
      <trkpt lat="42.588413" lon="0.679818">
        <ele>2304.1</ele>
        <time>2014-07-17T14:10:34Z</time>
      </trkpt>
      <trkpt lat="42.588379" lon="0.679694">
        <ele>2300.7</ele>
        <time>2014-07-17T14:10:49Z</time>
      </trkpt>
      <trkpt lat="42.588341" lon="0.679585">
        <ele>2297.1</ele>
        <time>2014-07-17T14:11:12Z</time>
      </trkpt>
      <trkpt lat="42.588285" lon="0.679453">
        <ele>2294.7</ele>
        <time>2014-07-17T14:11:27Z</time>
      </trkpt>
      <trkpt lat="42.588217" lon="0.679348">
        <ele>2292.4</ele>
        <time>2014-07-17T14:11:40Z</time>
      </trkpt>
      <trkpt lat="42.588159" lon="0.679248">
        <ele>2289.6</ele>
        <time>2014-07-17T14:11:54Z</time>
      </trkpt>
      <trkpt lat="42.588094" lon="0.679251">
        <ele>2285.9</ele>
        <time>2014-07-17T14:12:09Z</time>
      </trkpt>
      <trkpt lat="42.587992" lon="0.679220">
        <ele>2281.5</ele>
        <time>2014-07-17T14:12:29Z</time>
      </trkpt>
      <trkpt lat="42.587893" lon="0.679202">
        <ele>2278.0</ele>
        <time>2014-07-17T14:12:43Z</time>
      </trkpt>
      <trkpt lat="42.587804" lon="0.679206">
        <ele>2275.3</ele>
        <time>2014-07-17T14:12:53Z</time>
      </trkpt>
      <trkpt lat="42.587723" lon="0.679268">
        <ele>2273.0</ele>
        <time>2014-07-17T14:13:04Z</time>
      </trkpt>
      <trkpt lat="42.587689" lon="0.679348">
        <ele>2270.2</ele>
        <time>2014-07-17T14:13:17Z</time>
      </trkpt>
      <trkpt lat="42.587620" lon="0.679408">
        <ele>2267.1</ele>
        <time>2014-07-17T14:13:31Z</time>
      </trkpt>
      <trkpt lat="42.587547" lon="0.679422">
        <ele>2264.5</ele>
        <time>2014-07-17T14:13:44Z</time>
      </trkpt>
      <trkpt lat="42.587555" lon="0.679535">
        <ele>2261.7</ele>
        <time>2014-07-17T14:14:00Z</time>
      </trkpt>
      <trkpt lat="42.587594" lon="0.679660">
        <ele>2260.2</ele>
        <time>2014-07-17T14:14:11Z</time>
      </trkpt>
      <trkpt lat="42.587628" lon="0.679795">
        <ele>2258.4</ele>
        <time>2014-07-17T14:14:23Z</time>
      </trkpt>
      <trkpt lat="42.587637" lon="0.679923">
        <ele>2255.8</ele>
        <time>2014-07-17T14:14:38Z</time>
      </trkpt>
      <trkpt lat="42.587659" lon="0.680059">
        <ele>2254.3</ele>
        <time>2014-07-17T14:14:49Z</time>
      </trkpt>
      <trkpt lat="42.587656" lon="0.680196">
        <ele>2253.4</ele>
        <time>2014-07-17T14:15:01Z</time>
      </trkpt>
      <trkpt lat="42.587638" lon="0.680333">
        <ele>2252.1</ele>
        <time>2014-07-17T14:15:16Z</time>
      </trkpt>
      <trkpt lat="42.587611" lon="0.680457">
        <ele>2250.0</ele>
        <time>2014-07-17T14:15:29Z</time>
      </trkpt>
      <trkpt lat="42.587584" lon="0.680574">
        <ele>2247.8</ele>
        <time>2014-07-17T14:15:41Z</time>
      </trkpt>
      <trkpt lat="42.587551" lon="0.680631">
        <ele>2245.1</ele>
        <time>2014-07-17T14:15:56Z</time>
      </trkpt>
      <trkpt lat="42.587502" lon="0.680688">
        <ele>2242.5</ele>
        <time>2014-07-17T14:16:11Z</time>
      </trkpt>
      <trkpt lat="42.587448" lon="0.680716">
        <ele>2239.4</ele>
        <time>2014-07-17T14:16:26Z</time>
      </trkpt>
      <trkpt lat="42.587402" lon="0.680846">
        <ele>2236.1</ele>
        <time>2014-07-17T14:16:41Z</time>
      </trkpt>
      <trkpt lat="42.587362" lon="0.680980">
        <ele>2233.0</ele>
        <time>2014-07-17T14:16:52Z</time>
      </trkpt>
      <trkpt lat="42.587384" lon="0.681103">
        <ele>2231.2</ele>
        <time>2014-07-17T14:17:02Z</time>
      </trkpt>
      <trkpt lat="42.587374" lon="0.681225">
        <ele>2230.7</ele>
        <time>2014-07-17T14:17:13Z</time>
      </trkpt>
      <trkpt lat="42.587310" lon="0.681302">
        <ele>2229.6</ele>
        <time>2014-07-17T14:17:24Z</time>
      </trkpt>
      <trkpt lat="42.587271" lon="0.681382">
        <ele>2227.2</ele>
        <time>2014-07-17T14:17:44Z</time>
      </trkpt>
      <trkpt lat="42.587207" lon="0.681268">
        <ele>2225.5</ele>
        <time>2014-07-17T14:18:02Z</time>
      </trkpt>
      <trkpt lat="42.587107" lon="0.681257">
        <ele>2221.7</ele>
        <time>2014-07-17T14:18:15Z</time>
      </trkpt>
      <trkpt lat="42.587006" lon="0.681267">
        <ele>2217.5</ele>
        <time>2014-07-17T14:18:28Z</time>
      </trkpt>
      <trkpt lat="42.586955" lon="0.681326">
        <ele>2212.7</ele>
        <time>2014-07-17T14:18:46Z</time>
      </trkpt>
      <trkpt lat="42.586930" lon="0.681464">
        <ele>2211.6</ele>
        <time>2014-07-17T14:19:00Z</time>
      </trkpt>
      <trkpt lat="42.586923" lon="0.681601">
        <ele>2212.7</ele>
        <time>2014-07-17T14:19:14Z</time>
      </trkpt>
      <trkpt lat="42.586874" lon="0.681724">
        <ele>2213.2</ele>
        <time>2014-07-17T14:19:25Z</time>
      </trkpt>
      <trkpt lat="42.586812" lon="0.681833">
        <ele>2214.0</ele>
        <time>2014-07-17T14:19:36Z</time>
      </trkpt>
      <trkpt lat="42.586751" lon="0.681925">
        <ele>2214.4</ele>
        <time>2014-07-17T14:19:45Z</time>
      </trkpt>
      <trkpt lat="42.586725" lon="0.682041">
        <ele>2214.1</ele>
        <time>2014-07-17T14:19:54Z</time>
      </trkpt>
      <trkpt lat="42.586677" lon="0.682189">
        <ele>2214.9</ele>
        <time>2014-07-17T14:20:07Z</time>
      </trkpt>
      <trkpt lat="42.586623" lon="0.682283">
        <ele>2214.9</ele>
        <time>2014-07-17T14:20:16Z</time>
      </trkpt>
      <trkpt lat="42.586572" lon="0.682379">
        <ele>2214.5</ele>
        <time>2014-07-17T14:20:26Z</time>
      </trkpt>
      <trkpt lat="42.586527" lon="0.682493">
        <ele>2215.0</ele>
        <time>2014-07-17T14:20:37Z</time>
      </trkpt>
      <trkpt lat="42.586473" lon="0.682603">
        <ele>2215.2</ele>
        <time>2014-07-17T14:20:47Z</time>
      </trkpt>
      <trkpt lat="42.586427" lon="0.682715">
        <ele>2214.8</ele>
        <time>2014-07-17T14:20:57Z</time>
      </trkpt>
      <trkpt lat="42.586379" lon="0.682828">
        <ele>2213.8</ele>
        <time>2014-07-17T14:21:08Z</time>
      </trkpt>
      <trkpt lat="42.586328" lon="0.682928">
        <ele>2213.4</ele>
        <time>2014-07-17T14:21:17Z</time>
      </trkpt>
      <trkpt lat="42.586272" lon="0.683023">
        <ele>2213.9</ele>
        <time>2014-07-17T14:21:28Z</time>
      </trkpt>
      <trkpt lat="42.586235" lon="0.683145">
        <ele>2214.0</ele>
        <time>2014-07-17T14:21:39Z</time>
      </trkpt>
      <trkpt lat="42.586185" lon="0.683259">
        <ele>2213.6</ele>
        <time>2014-07-17T14:21:49Z</time>
      </trkpt>
      <trkpt lat="42.586129" lon="0.683363">
        <ele>2213.4</ele>
        <time>2014-07-17T14:22:02Z</time>
      </trkpt>
      <trkpt lat="42.586072" lon="0.683475">
        <ele>2214.0</ele>
        <time>2014-07-17T14:22:14Z</time>
      </trkpt>
      <trkpt lat="42.586037" lon="0.683602">
        <ele>2214.5</ele>
        <time>2014-07-17T14:22:26Z</time>
      </trkpt>
      <trkpt lat="42.585985" lon="0.683719">
        <ele>2214.6</ele>
        <time>2014-07-17T14:22:37Z</time>
      </trkpt>
      <trkpt lat="42.585925" lon="0.683824">
        <ele>2214.5</ele>
        <time>2014-07-17T14:22:47Z</time>
      </trkpt>
      <trkpt lat="42.585878" lon="0.683936">
        <ele>2214.1</ele>
        <time>2014-07-17T14:22:56Z</time>
      </trkpt>
      <trkpt lat="42.585859" lon="0.684079">
        <ele>2214.0</ele>
        <time>2014-07-17T14:23:06Z</time>
      </trkpt>
      <trkpt lat="42.585848" lon="0.684205">
        <ele>2214.4</ele>
        <time>2014-07-17T14:23:16Z</time>
      </trkpt>
      <trkpt lat="42.585822" lon="0.684325">
        <ele>2214.1</ele>
        <time>2014-07-17T14:23:26Z</time>
      </trkpt>
      <trkpt lat="42.585768" lon="0.684427">
        <ele>2213.9</ele>
        <time>2014-07-17T14:23:36Z</time>
      </trkpt>
      <trkpt lat="42.585754" lon="0.684557">
        <ele>2213.1</ele>
        <time>2014-07-17T14:23:49Z</time>
      </trkpt>
      <trkpt lat="42.585714" lon="0.684686">
        <ele>2213.3</ele>
        <time>2014-07-17T14:24:00Z</time>
      </trkpt>
      <trkpt lat="42.585674" lon="0.684818">
        <ele>2213.2</ele>
        <time>2014-07-17T14:24:11Z</time>
      </trkpt>
      <trkpt lat="42.585634" lon="0.684954">
        <ele>2212.6</ele>
        <time>2014-07-17T14:24:21Z</time>
      </trkpt>
      <trkpt lat="42.585599" lon="0.685067">
        <ele>2212.2</ele>
        <time>2014-07-17T14:24:32Z</time>
      </trkpt>
      <trkpt lat="42.585618" lon="0.685205">
        <ele>2213.4</ele>
        <time>2014-07-17T14:24:44Z</time>
      </trkpt>
      <trkpt lat="42.585643" lon="0.685348">
        <ele>2215.6</ele>
        <time>2014-07-17T14:25:00Z</time>
      </trkpt>
      <trkpt lat="42.585637" lon="0.685481">
        <ele>2217.3</ele>
        <time>2014-07-17T14:25:13Z</time>
      </trkpt>
      <trkpt lat="42.585632" lon="0.685623">
        <ele>2221.0</ele>
        <time>2014-07-17T14:25:35Z</time>
      </trkpt>
      <trkpt lat="42.585633" lon="0.685755">
        <ele>2223.1</ele>
        <time>2014-07-17T14:25:50Z</time>
      </trkpt>
      <trkpt lat="42.585618" lon="0.685889">
        <ele>2225.5</ele>
        <time>2014-07-17T14:26:08Z</time>
      </trkpt>
      <trkpt lat="42.585651" lon="0.686013">
        <ele>2229.2</ele>
        <time>2014-07-17T14:26:30Z</time>
      </trkpt>
      <trkpt lat="42.585643" lon="0.686153">
        <ele>2232.8</ele>
        <time>2014-07-17T14:26:49Z</time>
      </trkpt>
      <trkpt lat="42.585612" lon="0.686290">
        <ele>2234.8</ele>
        <time>2014-07-17T14:27:04Z</time>
      </trkpt>
      <trkpt lat="42.585622" lon="0.686430">
        <ele>2236.5</ele>
        <time>2014-07-17T14:27:18Z</time>
      </trkpt>
      <trkpt lat="42.585607" lon="0.686555">
        <ele>2238.9</ele>
        <time>2014-07-17T14:27:34Z</time>
      </trkpt>
      <trkpt lat="42.585603" lon="0.686688">
        <ele>2241.1</ele>
        <time>2014-07-17T14:27:48Z</time>
      </trkpt>
      <trkpt lat="42.585616" lon="0.686831">
        <ele>2242.1</ele>
        <time>2014-07-17T14:28:02Z</time>
      </trkpt>
      <trkpt lat="42.585624" lon="0.686964">
        <ele>2242.8</ele>
        <time>2014-07-17T14:28:14Z</time>
      </trkpt>
      <trkpt lat="42.585615" lon="0.687100">
        <ele>2242.9</ele>
        <time>2014-07-17T14:28:26Z</time>
      </trkpt>
      <trkpt lat="42.585612" lon="0.687217">
        <ele>2243.9</ele>
        <time>2014-07-17T14:28:40Z</time>
      </trkpt>
      <trkpt lat="42.585652" lon="0.687337">
        <ele>2247.4</ele>
        <time>2014-07-17T14:28:57Z</time>
      </trkpt>
      <trkpt lat="42.585689" lon="0.687443">
        <ele>2250.2</ele>
        <time>2014-07-17T14:29:13Z</time>
      </trkpt>
      <trkpt lat="42.585715" lon="0.687577">
        <ele>2251.1</ele>
        <time>2014-07-17T14:29:27Z</time>
      </trkpt>
      <trkpt lat="42.585702" lon="0.687705">
        <ele>2253.0</ele>
        <time>2014-07-17T14:29:41Z</time>
      </trkpt>
      <trkpt lat="42.585769" lon="0.687806">
        <ele>2253.5</ele>
        <time>2014-07-17T14:29:54Z</time>
      </trkpt>
      <trkpt lat="42.585758" lon="0.687925">
        <ele>2254.2</ele>
        <time>2014-07-17T14:30:04Z</time>
      </trkpt>
      <trkpt lat="42.585681" lon="0.688032">
        <ele>2254.3</ele>
        <time>2014-07-17T14:30:14Z</time>
      </trkpt>
      <trkpt lat="42.585645" lon="0.688143">
        <ele>2254.5</ele>
        <time>2014-07-17T14:30:24Z</time>
      </trkpt>
      <trkpt lat="42.585598" lon="0.688259">
        <ele>2253.1</ele>
        <time>2014-07-17T14:30:54Z</time>
      </trkpt>
      <trkpt lat="42.585561" lon="0.688361">
        <ele>2253.5</ele>
        <time>2014-07-17T14:31:05Z</time>
      </trkpt>
      <trkpt lat="42.585533" lon="0.688477">
        <ele>2252.5</ele>
        <time>2014-07-17T14:31:14Z</time>
      </trkpt>
      <trkpt lat="42.585498" lon="0.688590">
        <ele>2251.3</ele>
        <time>2014-07-17T14:31:24Z</time>
      </trkpt>
      <trkpt lat="42.585477" lon="0.688682">
        <ele>2249.6</ele>
        <time>2014-07-17T14:31:34Z</time>
      </trkpt>
      <trkpt lat="42.585468" lon="0.688800">
        <ele>2247.8</ele>
        <time>2014-07-17T14:31:44Z</time>
      </trkpt>
      <trkpt lat="42.585457" lon="0.688904">
        <ele>2244.4</ele>
        <time>2014-07-17T14:32:00Z</time>
      </trkpt>
      <trkpt lat="42.585489" lon="0.689012">
        <ele>2241.8</ele>
        <time>2014-07-17T14:32:25Z</time>
      </trkpt>
      <trkpt lat="42.585492" lon="0.689138">
        <ele>2239.6</ele>
        <time>2014-07-17T14:32:39Z</time>
      </trkpt>
      <trkpt lat="42.585481" lon="0.689280">
        <ele>2236.3</ele>
        <time>2014-07-17T14:32:54Z</time>
      </trkpt>
      <trkpt lat="42.585467" lon="0.689385">
        <ele>2232.2</ele>
        <time>2014-07-17T14:33:07Z</time>
      </trkpt>
      <trkpt lat="42.585439" lon="0.689521">
        <ele>2229.4</ele>
        <time>2014-07-17T14:33:18Z</time>
      </trkpt>
      <trkpt lat="42.585386" lon="0.689609">
        <ele>2226.4</ele>
        <time>2014-07-17T14:33:36Z</time>
      </trkpt>
      <trkpt lat="42.585344" lon="0.689700">
        <ele>2223.4</ele>
        <time>2014-07-17T14:33:52Z</time>
      </trkpt>
      <trkpt lat="42.585329" lon="0.689835">
        <ele>2222.4</ele>
        <time>2014-07-17T14:34:03Z</time>
      </trkpt>
      <trkpt lat="42.585302" lon="0.689953">
        <ele>2222.4</ele>
        <time>2014-07-17T14:34:16Z</time>
      </trkpt>
      <trkpt lat="42.585286" lon="0.690051">
        <ele>2220.4</ele>
        <time>2014-07-17T14:34:25Z</time>
      </trkpt>
      <trkpt lat="42.585271" lon="0.690186">
        <ele>2218.2</ele>
        <time>2014-07-17T14:34:33Z</time>
      </trkpt>
      <trkpt lat="42.585275" lon="0.690290">
        <ele>2216.8</ele>
        <time>2014-07-17T14:34:41Z</time>
      </trkpt>
      <trkpt lat="42.585286" lon="0.690404">
        <ele>2217.6</ele>
        <time>2014-07-17T14:34:53Z</time>
      </trkpt>
      <trkpt lat="42.585267" lon="0.690520">
        <ele>2217.3</ele>
        <time>2014-07-17T14:35:02Z</time>
      </trkpt>
      <trkpt lat="42.585244" lon="0.690660">
        <ele>2217.3</ele>
        <time>2014-07-17T14:35:13Z</time>
      </trkpt>
      <trkpt lat="42.585243" lon="0.690789">
        <ele>2216.9</ele>
        <time>2014-07-17T14:35:23Z</time>
      </trkpt>
      <trkpt lat="42.585273" lon="0.690906">
        <ele>2216.7</ele>
        <time>2014-07-17T14:35:32Z</time>
      </trkpt>
      <trkpt lat="42.585270" lon="0.691015">
        <ele>2217.2</ele>
        <time>2014-07-17T14:35:46Z</time>
      </trkpt>
      <trkpt lat="42.585275" lon="0.691148">
        <ele>2218.2</ele>
        <time>2014-07-17T14:35:59Z</time>
      </trkpt>
      <trkpt lat="42.585265" lon="0.691262">
        <ele>2219.2</ele>
        <time>2014-07-17T14:36:14Z</time>
      </trkpt>
      <trkpt lat="42.585229" lon="0.691372">
        <ele>2220.0</ele>
        <time>2014-07-17T14:36:31Z</time>
      </trkpt>
      <trkpt lat="42.585191" lon="0.691502">
        <ele>2220.2</ele>
        <time>2014-07-17T14:36:43Z</time>
      </trkpt>
      <trkpt lat="42.585146" lon="0.691609">
        <ele>2220.2</ele>
        <time>2014-07-17T14:36:55Z</time>
      </trkpt>
      <trkpt lat="42.585122" lon="0.691731">
        <ele>2219.0</ele>
        <time>2014-07-17T14:37:05Z</time>
      </trkpt>
      <trkpt lat="42.585073" lon="0.691849">
        <ele>2219.2</ele>
        <time>2014-07-17T14:37:14Z</time>
      </trkpt>
      <trkpt lat="42.585043" lon="0.691937">
        <ele>2219.6</ele>
        <time>2014-07-17T14:37:25Z</time>
      </trkpt>
      <trkpt lat="42.585009" lon="0.692058">
        <ele>2218.6</ele>
        <time>2014-07-17T14:37:40Z</time>
      </trkpt>
      <trkpt lat="42.584985" lon="0.692189">
        <ele>2218.9</ele>
        <time>2014-07-17T14:37:55Z</time>
      </trkpt>
      <trkpt lat="42.584996" lon="0.692291">
        <ele>2220.7</ele>
        <time>2014-07-17T14:38:14Z</time>
      </trkpt>
      <trkpt lat="42.584933" lon="0.692405">
        <ele>2220.8</ele>
        <time>2014-07-17T14:38:27Z</time>
      </trkpt>
      <trkpt lat="42.584892" lon="0.692546">
        <ele>2220.6</ele>
        <time>2014-07-17T14:38:38Z</time>
      </trkpt>
      <trkpt lat="42.584843" lon="0.692666">
        <ele>2220.4</ele>
        <time>2014-07-17T14:38:48Z</time>
      </trkpt>
      <trkpt lat="42.584779" lon="0.692782">
        <ele>2220.0</ele>
        <time>2014-07-17T14:38:58Z</time>
      </trkpt>
      <trkpt lat="42.584708" lon="0.692851">
        <ele>2218.8</ele>
        <time>2014-07-17T14:39:10Z</time>
      </trkpt>
      <trkpt lat="42.584647" lon="0.692942">
        <ele>2217.0</ele>
        <time>2014-07-17T14:39:26Z</time>
      </trkpt>
      <trkpt lat="42.584606" lon="0.693056">
        <ele>2216.5</ele>
        <time>2014-07-17T14:39:39Z</time>
      </trkpt>
      <trkpt lat="42.584577" lon="0.693191">
        <ele>2216.1</ele>
        <time>2014-07-17T14:39:54Z</time>
      </trkpt>
      <trkpt lat="42.584516" lon="0.693294">
        <ele>2215.1</ele>
        <time>2014-07-17T14:40:07Z</time>
      </trkpt>
      <trkpt lat="42.584483" lon="0.693406">
        <ele>2213.8</ele>
        <time>2014-07-17T14:40:18Z</time>
      </trkpt>
      <trkpt lat="42.584485" lon="0.693544">
        <ele>2212.7</ele>
        <time>2014-07-17T14:40:35Z</time>
      </trkpt>
      <trkpt lat="42.584453" lon="0.693685">
        <ele>2212.4</ele>
        <time>2014-07-17T14:40:49Z</time>
      </trkpt>
      <trkpt lat="42.584450" lon="0.693815">
        <ele>2212.0</ele>
        <time>2014-07-17T14:40:59Z</time>
      </trkpt>
      <trkpt lat="42.584440" lon="0.693947">
        <ele>2211.4</ele>
        <time>2014-07-17T14:41:09Z</time>
      </trkpt>
      <trkpt lat="42.584438" lon="0.694076">
        <ele>2211.3</ele>
        <time>2014-07-17T14:41:19Z</time>
      </trkpt>
      <trkpt lat="42.584469" lon="0.694216">
        <ele>2211.2</ele>
        <time>2014-07-17T14:41:30Z</time>
      </trkpt>
      <trkpt lat="42.584480" lon="0.694335">
        <ele>2210.7</ele>
        <time>2014-07-17T14:41:41Z</time>
      </trkpt>
      <trkpt lat="42.584417" lon="0.694483">
        <ele>2211.0</ele>
        <time>2014-07-17T14:41:54Z</time>
      </trkpt>
      <trkpt lat="42.584378" lon="0.694603">
        <ele>2211.1</ele>
        <time>2014-07-17T14:42:04Z</time>
      </trkpt>
      <trkpt lat="42.584364" lon="0.694695">
        <ele>2211.1</ele>
        <time>2014-07-17T14:42:17Z</time>
      </trkpt>
      <trkpt lat="42.584356" lon="0.694849">
        <ele>2211.0</ele>
        <time>2014-07-17T14:42:30Z</time>
      </trkpt>
      <trkpt lat="42.584353" lon="0.694990">
        <ele>2211.2</ele>
        <time>2014-07-17T14:42:47Z</time>
      </trkpt>
      <trkpt lat="42.584306" lon="0.695130">
        <ele>2211.2</ele>
        <time>2014-07-17T14:43:00Z</time>
      </trkpt>
      <trkpt lat="42.584254" lon="0.695264">
        <ele>2210.6</ele>
        <time>2014-07-17T14:43:11Z</time>
      </trkpt>
      <trkpt lat="42.584204" lon="0.695393">
        <ele>2210.2</ele>
        <time>2014-07-17T14:43:20Z</time>
      </trkpt>
      <trkpt lat="42.584156" lon="0.695513">
        <ele>2210.0</ele>
        <time>2014-07-17T14:43:29Z</time>
      </trkpt>
      <trkpt lat="42.584142" lon="0.695644">
        <ele>2210.2</ele>
        <time>2014-07-17T14:43:38Z</time>
      </trkpt>
      <trkpt lat="42.584103" lon="0.695747">
        <ele>2210.0</ele>
        <time>2014-07-17T14:43:47Z</time>
      </trkpt>
      <trkpt lat="42.584014" lon="0.695817">
        <ele>2210.4</ele>
        <time>2014-07-17T14:43:57Z</time>
      </trkpt>
      <trkpt lat="42.583945" lon="0.695897">
        <ele>2211.8</ele>
        <time>2014-07-17T14:44:08Z</time>
      </trkpt>
      <trkpt lat="42.583878" lon="0.695988">
        <ele>2213.5</ele>
        <time>2014-07-17T14:44:22Z</time>
      </trkpt>
      <trkpt lat="42.583802" lon="0.696084">
        <ele>2215.0</ele>
        <time>2014-07-17T14:44:34Z</time>
      </trkpt>
      <trkpt lat="42.583706" lon="0.696170">
        <ele>2216.6</ele>
        <time>2014-07-17T14:44:46Z</time>
      </trkpt>
      <trkpt lat="42.583625" lon="0.696223">
        <ele>2217.8</ele>
        <time>2014-07-17T14:44:57Z</time>
      </trkpt>
      <trkpt lat="42.583533" lon="0.696291">
        <ele>2219.2</ele>
        <time>2014-07-17T14:45:09Z</time>
      </trkpt>
      <trkpt lat="42.583438" lon="0.696351">
        <ele>2220.5</ele>
        <time>2014-07-17T14:45:20Z</time>
      </trkpt>
      <trkpt lat="42.583343" lon="0.696394">
        <ele>2221.7</ele>
        <time>2014-07-17T14:45:31Z</time>
      </trkpt>
      <trkpt lat="42.583237" lon="0.696482">
        <ele>2222.1</ele>
        <time>2014-07-17T14:45:42Z</time>
      </trkpt>
      <trkpt lat="42.583148" lon="0.696535">
        <ele>2222.6</ele>
        <time>2014-07-17T14:45:53Z</time>
      </trkpt>
      <trkpt lat="42.583032" lon="0.696499">
        <ele>2223.1</ele>
        <time>2014-07-17T14:46:04Z</time>
      </trkpt>
      <trkpt lat="42.582938" lon="0.696429">
        <ele>2223.3</ele>
        <time>2014-07-17T14:46:12Z</time>
      </trkpt>
      <trkpt lat="42.582842" lon="0.696373">
        <ele>2223.5</ele>
        <time>2014-07-17T14:46:21Z</time>
      </trkpt>
      <trkpt lat="42.582737" lon="0.696329">
        <ele>2223.8</ele>
        <time>2014-07-17T14:46:30Z</time>
      </trkpt>
      <trkpt lat="42.582619" lon="0.696326">
        <ele>2224.2</ele>
        <time>2014-07-17T14:46:40Z</time>
      </trkpt>
      <trkpt lat="42.582508" lon="0.696300">
        <ele>2224.6</ele>
        <time>2014-07-17T14:46:50Z</time>
      </trkpt>
      <trkpt lat="42.582422" lon="0.696338">
        <ele>2224.6</ele>
        <time>2014-07-17T14:47:01Z</time>
      </trkpt>
      <trkpt lat="42.582343" lon="0.696388">
        <ele>2223.9</ele>
        <time>2014-07-17T14:47:11Z</time>
      </trkpt>
      <trkpt lat="42.581982" lon="0.696366">
        <ele>2220.2</ele>
        <time>2014-07-17T14:47:41Z</time>
      </trkpt>
    </trkseg>
  </trk>
</gpx>

